<?xml version="1.0" encoding="UTF-8" standalone="no" ?>
<gpx xmlns="http://www.topografix.com/GPX/1/1" xmlns:xsi="http://www.w3.org/2001/XMLSchema-instance" xsi:schemaLocation="http://www.topografix.com/GPX/1/1 http://www.topografix.com/GPX/1/1/gpx.xsd" version="1.1" creator="VisuGPX - https://www.visugpx.com">
  <metadata>
    <name>rando boucle d'Equemauville (14) </name>
    <desc><![CDATA[Rando découverte au sud d'Honfleur  (12 km ) Facile.
A retrouver sur [url]http://trekkingzone.fr[/url]

]]></desc>
  </metadata>
  <trk>
    <name><![CDATA[21 févr. 2021 à 10:03:32]]></name>
    <cmt><![CDATA[21 févr. 2021 à 10:03:32]]></cmt>
    <trkseg>
      <trkpt lat="49.42131" lon="0.23051">
        <ele>20</ele>
        <time>2021-02-21T09:03:32Z</time>
      </trkpt>
      <trkpt lat="49.42131" lon="0.23051">
        <ele>20</ele>
        <time>2021-02-21T09:03:33Z</time>
      </trkpt>
      <trkpt lat="49.42129" lon="0.23067">
        <ele>19</ele>
        <time>2021-02-21T09:03:46Z</time>
      </trkpt>
      <trkpt lat="49.4212" lon="0.23082">
        <ele>18</ele>
        <time>2021-02-21T09:03:59Z</time>
      </trkpt>
      <trkpt lat="49.42115" lon="0.2309">
        <ele>18</ele>
        <time>2021-02-21T09:04:06Z</time>
      </trkpt>
      <trkpt lat="49.42096" lon="0.23122">
        <ele>15</ele>
        <time>2021-02-21T09:04:34Z</time>
      </trkpt>
      <trkpt lat="49.42091" lon="0.23138">
        <ele>15</ele>
        <time>2021-02-21T09:04:44Z</time>
      </trkpt>
      <trkpt lat="49.42085" lon="0.2315">
        <ele>14</ele>
        <time>2021-02-21T09:04:50Z</time>
      </trkpt>
      <trkpt lat="49.42082" lon="0.23157">
        <ele>14</ele>
        <time>2021-02-21T09:04:54Z</time>
      </trkpt>
      <trkpt lat="49.42081" lon="0.23165">
        <ele>14</ele>
        <time>2021-02-21T09:04:57Z</time>
      </trkpt>
      <trkpt lat="49.42082" lon="0.23174">
        <ele>13</ele>
        <time>2021-02-21T09:05:04Z</time>
      </trkpt>
      <trkpt lat="49.42086" lon="0.23187">
        <ele>13</ele>
        <time>2021-02-21T09:05:12Z</time>
      </trkpt>
      <trkpt lat="49.42088" lon="0.23236">
        <ele>11</ele>
        <time>2021-02-21T09:05:38Z</time>
      </trkpt>
      <trkpt lat="49.42086" lon="0.23245">
        <ele>11</ele>
        <time>2021-02-21T09:05:42Z</time>
      </trkpt>
      <trkpt lat="49.42089" lon="0.23261">
        <ele>10</ele>
        <time>2021-02-21T09:05:50Z</time>
      </trkpt>
      <trkpt lat="49.42093" lon="0.23277">
        <ele>9</ele>
        <time>2021-02-21T09:06:02Z</time>
      </trkpt>
      <trkpt lat="49.42117" lon="0.23301">
        <ele>7</ele>
        <time>2021-02-21T09:06:31Z</time>
      </trkpt>
      <trkpt lat="49.42129" lon="0.23322">
        <ele>5</ele>
        <time>2021-02-21T09:07:01Z</time>
      </trkpt>
      <trkpt lat="49.42132" lon="0.23334">
        <ele>5</ele>
        <time>2021-02-21T09:07:06Z</time>
      </trkpt>
      <trkpt lat="49.42127" lon="0.23341">
        <ele>4</ele>
        <time>2021-02-21T09:07:10Z</time>
      </trkpt>
      <trkpt lat="49.42123" lon="0.23344">
        <ele>3</ele>
        <time>2021-02-21T09:07:13Z</time>
      </trkpt>
      <trkpt lat="49.42118" lon="0.23341">
        <ele>3</ele>
        <time>2021-02-21T09:07:18Z</time>
      </trkpt>
      <trkpt lat="49.421" lon="0.23316">
        <ele>2</ele>
        <time>2021-02-21T09:07:39Z</time>
      </trkpt>
      <trkpt lat="49.42095" lon="0.23305">
        <ele>2</ele>
        <time>2021-02-21T09:07:48Z</time>
      </trkpt>
      <trkpt lat="49.42074" lon="0.23284">
        <ele>2</ele>
        <time>2021-02-21T09:08:10Z</time>
      </trkpt>
      <trkpt lat="49.42068" lon="0.23281">
        <ele>2</ele>
        <time>2021-02-21T09:08:15Z</time>
      </trkpt>
      <trkpt lat="49.42063" lon="0.23276">
        <ele>2</ele>
        <time>2021-02-21T09:08:19Z</time>
      </trkpt>
      <trkpt lat="49.42058" lon="0.23275">
        <ele>2</ele>
        <time>2021-02-21T09:08:23Z</time>
      </trkpt>
      <trkpt lat="49.42029" lon="0.23253">
        <ele>2</ele>
        <time>2021-02-21T09:08:50Z</time>
      </trkpt>
      <trkpt lat="49.42023" lon="0.23251">
        <ele>3</ele>
        <time>2021-02-21T09:08:54Z</time>
      </trkpt>
      <trkpt lat="49.42017" lon="0.23251">
        <ele>3</ele>
        <time>2021-02-21T09:08:58Z</time>
      </trkpt>
      <trkpt lat="49.42012" lon="0.23258">
        <ele>3</ele>
        <time>2021-02-21T09:09:02Z</time>
      </trkpt>
      <trkpt lat="49.42008" lon="0.23263">
        <ele>3</ele>
        <time>2021-02-21T09:09:05Z</time>
      </trkpt>
      <trkpt lat="49.42004" lon="0.23266">
        <ele>3</ele>
        <time>2021-02-21T09:09:08Z</time>
      </trkpt>
      <trkpt lat="49.41999" lon="0.23269">
        <ele>3</ele>
        <time>2021-02-21T09:09:11Z</time>
      </trkpt>
      <trkpt lat="49.41993" lon="0.23266">
        <ele>3</ele>
        <time>2021-02-21T09:09:16Z</time>
      </trkpt>
      <trkpt lat="49.41992" lon="0.23257">
        <ele>2</ele>
        <time>2021-02-21T09:09:21Z</time>
      </trkpt>
      <trkpt lat="49.41989" lon="0.23252">
        <ele>3</ele>
        <time>2021-02-21T09:09:25Z</time>
      </trkpt>
      <trkpt lat="49.41981" lon="0.23251">
        <ele>3</ele>
        <time>2021-02-21T09:09:31Z</time>
      </trkpt>
      <trkpt lat="49.41977" lon="0.23244">
        <ele>3</ele>
        <time>2021-02-21T09:09:40Z</time>
      </trkpt>
      <trkpt lat="49.4197" lon="0.23246">
        <ele>4</ele>
        <time>2021-02-21T09:09:51Z</time>
      </trkpt>
      <trkpt lat="49.4196" lon="0.23252">
        <ele>4</ele>
        <time>2021-02-21T09:10:02Z</time>
      </trkpt>
      <trkpt lat="49.41953" lon="0.2325">
        <ele>5</ele>
        <time>2021-02-21T09:10:10Z</time>
      </trkpt>
      <trkpt lat="49.41948" lon="0.23246">
        <ele>6</ele>
        <time>2021-02-21T09:10:18Z</time>
      </trkpt>
      <trkpt lat="49.41942" lon="0.23241">
        <ele>6</ele>
        <time>2021-02-21T09:10:28Z</time>
      </trkpt>
      <trkpt lat="49.41937" lon="0.2324">
        <ele>6</ele>
        <time>2021-02-21T09:10:32Z</time>
      </trkpt>
      <trkpt lat="49.41927" lon="0.23239">
        <ele>6</ele>
        <time>2021-02-21T09:10:40Z</time>
      </trkpt>
      <trkpt lat="49.41922" lon="0.23238">
        <ele>6</ele>
        <time>2021-02-21T09:10:43Z</time>
      </trkpt>
      <trkpt lat="49.41917" lon="0.23235">
        <ele>7</ele>
        <time>2021-02-21T09:10:47Z</time>
      </trkpt>
      <trkpt lat="49.41912" lon="0.23234">
        <ele>7</ele>
        <time>2021-02-21T09:10:51Z</time>
      </trkpt>
      <trkpt lat="49.41907" lon="0.23231">
        <ele>7</ele>
        <time>2021-02-21T09:10:55Z</time>
      </trkpt>
      <trkpt lat="49.41897" lon="0.23226">
        <ele>7</ele>
        <time>2021-02-21T09:11:03Z</time>
      </trkpt>
      <trkpt lat="49.41892" lon="0.23221">
        <ele>7</ele>
        <time>2021-02-21T09:11:08Z</time>
      </trkpt>
      <trkpt lat="49.41886" lon="0.23218">
        <ele>7</ele>
        <time>2021-02-21T09:11:12Z</time>
      </trkpt>
      <trkpt lat="49.41867" lon="0.23204">
        <ele>7</ele>
        <time>2021-02-21T09:11:29Z</time>
      </trkpt>
      <trkpt lat="49.41863" lon="0.232">
        <ele>7</ele>
        <time>2021-02-21T09:11:33Z</time>
      </trkpt>
      <trkpt lat="49.41847" lon="0.23192">
        <ele>7</ele>
        <time>2021-02-21T09:11:45Z</time>
      </trkpt>
      <trkpt lat="49.41842" lon="0.2319">
        <ele>7</ele>
        <time>2021-02-21T09:11:56Z</time>
      </trkpt>
      <trkpt lat="49.41837" lon="0.23183">
        <ele>8</ele>
        <time>2021-02-21T09:12:07Z</time>
      </trkpt>
      <trkpt lat="49.41831" lon="0.23177">
        <ele>8</ele>
        <time>2021-02-21T09:12:19Z</time>
      </trkpt>
      <trkpt lat="49.41829" lon="0.23178">
        <ele>9</ele>
        <time>2021-02-21T09:12:48Z</time>
      </trkpt>
      <trkpt lat="49.41822" lon="0.23164">
        <ele>8</ele>
        <time>2021-02-21T09:12:58Z</time>
      </trkpt>
      <trkpt lat="49.41808" lon="0.2315">
        <ele>9</ele>
        <time>2021-02-21T09:13:14Z</time>
      </trkpt>
      <trkpt lat="49.41799" lon="0.23148">
        <ele>9</ele>
        <time>2021-02-21T09:13:21Z</time>
      </trkpt>
      <trkpt lat="49.41791" lon="0.23148">
        <ele>9</ele>
        <time>2021-02-21T09:13:35Z</time>
      </trkpt>
      <trkpt lat="49.4177" lon="0.23132">
        <ele>9</ele>
        <time>2021-02-21T09:13:59Z</time>
      </trkpt>
      <trkpt lat="49.41765" lon="0.23126">
        <ele>9</ele>
        <time>2021-02-21T09:14:04Z</time>
      </trkpt>
      <trkpt lat="49.4176" lon="0.23121">
        <ele>9</ele>
        <time>2021-02-21T09:14:09Z</time>
      </trkpt>
      <trkpt lat="49.41754" lon="0.23121">
        <ele>9</ele>
        <time>2021-02-21T09:14:15Z</time>
      </trkpt>
      <trkpt lat="49.41716" lon="0.23093">
        <ele>9</ele>
        <time>2021-02-21T09:14:47Z</time>
      </trkpt>
      <trkpt lat="49.41712" lon="0.23088">
        <ele>9</ele>
        <time>2021-02-21T09:14:51Z</time>
      </trkpt>
      <trkpt lat="49.41707" lon="0.23085">
        <ele>10</ele>
        <time>2021-02-21T09:14:55Z</time>
      </trkpt>
      <trkpt lat="49.41693" lon="0.23075">
        <ele>10</ele>
        <time>2021-02-21T09:15:10Z</time>
      </trkpt>
      <trkpt lat="49.41688" lon="0.23071">
        <ele>11</ele>
        <time>2021-02-21T09:15:33Z</time>
      </trkpt>
      <trkpt lat="49.41664" lon="0.23056">
        <ele>11</ele>
        <time>2021-02-21T09:15:52Z</time>
      </trkpt>
      <trkpt lat="49.41656" lon="0.23053">
        <ele>11</ele>
        <time>2021-02-21T09:15:59Z</time>
      </trkpt>
      <trkpt lat="49.41652" lon="0.23049">
        <ele>11</ele>
        <time>2021-02-21T09:16:03Z</time>
      </trkpt>
      <trkpt lat="49.41642" lon="0.23047">
        <ele>11</ele>
        <time>2021-02-21T09:16:11Z</time>
      </trkpt>
      <trkpt lat="49.41635" lon="0.23047">
        <ele>11</ele>
        <time>2021-02-21T09:16:15Z</time>
      </trkpt>
      <trkpt lat="49.41631" lon="0.23046">
        <ele>12</ele>
        <time>2021-02-21T09:16:18Z</time>
      </trkpt>
      <trkpt lat="49.41633" lon="0.23037">
        <ele>12</ele>
        <time>2021-02-21T09:16:31Z</time>
      </trkpt>
      <trkpt lat="49.4165" lon="0.23054">
        <ele>11</ele>
        <time>2021-02-21T09:16:57Z</time>
      </trkpt>
      <trkpt lat="49.41668" lon="0.23068">
        <ele>11</ele>
        <time>2021-02-21T09:17:13Z</time>
      </trkpt>
      <trkpt lat="49.41677" lon="0.23101">
        <ele>10</ele>
        <time>2021-02-21T09:17:28Z</time>
      </trkpt>
      <trkpt lat="49.41681" lon="0.23107">
        <ele>10</ele>
        <time>2021-02-21T09:17:33Z</time>
      </trkpt>
      <trkpt lat="49.41684" lon="0.23119">
        <ele>10</ele>
        <time>2021-02-21T09:17:43Z</time>
      </trkpt>
      <trkpt lat="49.41687" lon="0.23128">
        <ele>10</ele>
        <time>2021-02-21T09:17:49Z</time>
      </trkpt>
      <trkpt lat="49.41685" lon="0.23145">
        <ele>10</ele>
        <time>2021-02-21T09:18:01Z</time>
      </trkpt>
      <trkpt lat="49.41686" lon="0.23152">
        <ele>10</ele>
        <time>2021-02-21T09:18:04Z</time>
      </trkpt>
      <trkpt lat="49.41684" lon="0.23173">
        <ele>11</ele>
        <time>2021-02-21T09:18:16Z</time>
      </trkpt>
      <trkpt lat="49.4168" lon="0.23179">
        <ele>11</ele>
        <time>2021-02-21T09:18:21Z</time>
      </trkpt>
      <trkpt lat="49.41677" lon="0.23202">
        <ele>11</ele>
        <time>2021-02-21T09:18:34Z</time>
      </trkpt>
      <trkpt lat="49.41671" lon="0.23203">
        <ele>11</ele>
        <time>2021-02-21T09:18:37Z</time>
      </trkpt>
      <trkpt lat="49.41655" lon="0.23196">
        <ele>11</ele>
        <time>2021-02-21T09:18:47Z</time>
      </trkpt>
      <trkpt lat="49.41651" lon="0.23192">
        <ele>11</ele>
        <time>2021-02-21T09:18:50Z</time>
      </trkpt>
      <trkpt lat="49.41645" lon="0.23189">
        <ele>11</ele>
        <time>2021-02-21T09:18:55Z</time>
      </trkpt>
      <trkpt lat="49.4164" lon="0.23189">
        <ele>11</ele>
        <time>2021-02-21T09:18:58Z</time>
      </trkpt>
      <trkpt lat="49.41635" lon="0.2319">
        <ele>10</ele>
        <time>2021-02-21T09:19:01Z</time>
      </trkpt>
      <trkpt lat="49.41617" lon="0.23183">
        <ele>10</ele>
        <time>2021-02-21T09:19:17Z</time>
      </trkpt>
      <trkpt lat="49.41612" lon="0.23183">
        <ele>10</ele>
        <time>2021-02-21T09:19:23Z</time>
      </trkpt>
      <trkpt lat="49.41601" lon="0.23174">
        <ele>10</ele>
        <time>2021-02-21T09:19:33Z</time>
      </trkpt>
      <trkpt lat="49.41597" lon="0.23171">
        <ele>10</ele>
        <time>2021-02-21T09:19:37Z</time>
      </trkpt>
      <trkpt lat="49.41575" lon="0.23158">
        <ele>10</ele>
        <time>2021-02-21T09:19:54Z</time>
      </trkpt>
      <trkpt lat="49.41554" lon="0.23139">
        <ele>10</ele>
        <time>2021-02-21T09:20:15Z</time>
      </trkpt>
      <trkpt lat="49.41538" lon="0.23132">
        <ele>10</ele>
        <time>2021-02-21T09:20:27Z</time>
      </trkpt>
      <trkpt lat="49.41531" lon="0.23129">
        <ele>9</ele>
        <time>2021-02-21T09:20:33Z</time>
      </trkpt>
      <trkpt lat="49.41523" lon="0.23135">
        <ele>10</ele>
        <time>2021-02-21T09:20:42Z</time>
      </trkpt>
      <trkpt lat="49.4152" lon="0.23139">
        <ele>10</ele>
        <time>2021-02-21T09:20:48Z</time>
      </trkpt>
      <trkpt lat="49.4152" lon="0.23151">
        <ele>14</ele>
        <time>2021-02-21T09:21:38Z</time>
      </trkpt>
      <trkpt lat="49.41518" lon="0.23159">
        <ele>15</ele>
        <time>2021-02-21T09:21:43Z</time>
      </trkpt>
      <trkpt lat="49.41508" lon="0.23184">
        <ele>22</ele>
        <time>2021-02-21T09:22:07Z</time>
      </trkpt>
      <trkpt lat="49.41507" lon="0.23191">
        <ele>23</ele>
        <time>2021-02-21T09:22:12Z</time>
      </trkpt>
      <trkpt lat="49.41497" lon="0.23212">
        <ele>26</ele>
        <time>2021-02-21T09:22:26Z</time>
      </trkpt>
      <trkpt lat="49.41491" lon="0.23211">
        <ele>26</ele>
        <time>2021-02-21T09:22:35Z</time>
      </trkpt>
      <trkpt lat="49.41479" lon="0.23198">
        <ele>26</ele>
        <time>2021-02-21T09:22:47Z</time>
      </trkpt>
      <trkpt lat="49.41472" lon="0.23186">
        <ele>26</ele>
        <time>2021-02-21T09:22:55Z</time>
      </trkpt>
      <trkpt lat="49.41458" lon="0.23173">
        <ele>25</ele>
        <time>2021-02-21T09:23:08Z</time>
      </trkpt>
      <trkpt lat="49.41454" lon="0.23166">
        <ele>25</ele>
        <time>2021-02-21T09:23:12Z</time>
      </trkpt>
      <trkpt lat="49.41452" lon="0.2316">
        <ele>25</ele>
        <time>2021-02-21T09:23:16Z</time>
      </trkpt>
      <trkpt lat="49.41448" lon="0.23156">
        <ele>25</ele>
        <time>2021-02-21T09:23:19Z</time>
      </trkpt>
      <trkpt lat="49.41444" lon="0.2315">
        <ele>25</ele>
        <time>2021-02-21T09:23:23Z</time>
      </trkpt>
      <trkpt lat="49.41428" lon="0.23134">
        <ele>24</ele>
        <time>2021-02-21T09:23:40Z</time>
      </trkpt>
      <trkpt lat="49.41419" lon="0.23128">
        <ele>24</ele>
        <time>2021-02-21T09:23:48Z</time>
      </trkpt>
      <trkpt lat="49.41415" lon="0.23123">
        <ele>24</ele>
        <time>2021-02-21T09:23:52Z</time>
      </trkpt>
      <trkpt lat="49.41409" lon="0.23122">
        <ele>24</ele>
        <time>2021-02-21T09:23:57Z</time>
      </trkpt>
      <trkpt lat="49.41375" lon="0.23091">
        <ele>25</ele>
        <time>2021-02-21T09:24:31Z</time>
      </trkpt>
      <trkpt lat="49.4137" lon="0.2309">
        <ele>25</ele>
        <time>2021-02-21T09:24:34Z</time>
      </trkpt>
      <trkpt lat="49.41365" lon="0.23084">
        <ele>25</ele>
        <time>2021-02-21T09:24:40Z</time>
      </trkpt>
      <trkpt lat="49.4136" lon="0.23081">
        <ele>25</ele>
        <time>2021-02-21T09:24:45Z</time>
      </trkpt>
      <trkpt lat="49.41356" lon="0.23076">
        <ele>26</ele>
        <time>2021-02-21T09:24:50Z</time>
      </trkpt>
      <trkpt lat="49.41351" lon="0.23069">
        <ele>26</ele>
        <time>2021-02-21T09:25:06Z</time>
      </trkpt>
      <trkpt lat="49.41347" lon="0.23066">
        <ele>26</ele>
        <time>2021-02-21T09:25:10Z</time>
      </trkpt>
      <trkpt lat="49.41342" lon="0.23061">
        <ele>26</ele>
        <time>2021-02-21T09:25:14Z</time>
      </trkpt>
      <trkpt lat="49.41338" lon="0.23057">
        <ele>26</ele>
        <time>2021-02-21T09:25:18Z</time>
      </trkpt>
      <trkpt lat="49.41308" lon="0.23031">
        <ele>27</ele>
        <time>2021-02-21T09:25:45Z</time>
      </trkpt>
      <trkpt lat="49.41302" lon="0.23029">
        <ele>27</ele>
        <time>2021-02-21T09:25:49Z</time>
      </trkpt>
      <trkpt lat="49.41298" lon="0.23024">
        <ele>27</ele>
        <time>2021-02-21T09:25:53Z</time>
      </trkpt>
      <trkpt lat="49.41293" lon="0.23022">
        <ele>27</ele>
        <time>2021-02-21T09:25:57Z</time>
      </trkpt>
      <trkpt lat="49.41259" lon="0.2299">
        <ele>29</ele>
        <time>2021-02-21T09:26:30Z</time>
      </trkpt>
      <trkpt lat="49.41247" lon="0.22976">
        <ele>29</ele>
        <time>2021-02-21T09:26:42Z</time>
      </trkpt>
      <trkpt lat="49.41214" lon="0.22947">
        <ele>29</ele>
        <time>2021-02-21T09:27:14Z</time>
      </trkpt>
      <trkpt lat="49.41209" lon="0.22943">
        <ele>29</ele>
        <time>2021-02-21T09:27:19Z</time>
      </trkpt>
      <trkpt lat="49.41206" lon="0.22937">
        <ele>29</ele>
        <time>2021-02-21T09:27:23Z</time>
      </trkpt>
      <trkpt lat="49.41199" lon="0.22927">
        <ele>29</ele>
        <time>2021-02-21T09:27:31Z</time>
      </trkpt>
      <trkpt lat="49.41195" lon="0.22923">
        <ele>29</ele>
        <time>2021-02-21T09:27:35Z</time>
      </trkpt>
      <trkpt lat="49.41192" lon="0.22917">
        <ele>29</ele>
        <time>2021-02-21T09:27:39Z</time>
      </trkpt>
      <trkpt lat="49.41188" lon="0.22911">
        <ele>29</ele>
        <time>2021-02-21T09:27:43Z</time>
      </trkpt>
      <trkpt lat="49.41184" lon="0.22907">
        <ele>30</ele>
        <time>2021-02-21T09:27:47Z</time>
      </trkpt>
      <trkpt lat="49.41176" lon="0.22898">
        <ele>30</ele>
        <time>2021-02-21T09:27:55Z</time>
      </trkpt>
      <trkpt lat="49.41167" lon="0.22891">
        <ele>30</ele>
        <time>2021-02-21T09:28:04Z</time>
      </trkpt>
      <trkpt lat="49.4116" lon="0.22881">
        <ele>30</ele>
        <time>2021-02-21T09:28:15Z</time>
      </trkpt>
      <trkpt lat="49.41157" lon="0.22876">
        <ele>30</ele>
        <time>2021-02-21T09:28:18Z</time>
      </trkpt>
      <trkpt lat="49.41153" lon="0.22871">
        <ele>31</ele>
        <time>2021-02-21T09:28:23Z</time>
      </trkpt>
      <trkpt lat="49.41122" lon="0.22841">
        <ele>32</ele>
        <time>2021-02-21T09:28:54Z</time>
      </trkpt>
      <trkpt lat="49.41118" lon="0.22836">
        <ele>32</ele>
        <time>2021-02-21T09:28:59Z</time>
      </trkpt>
      <trkpt lat="49.41104" lon="0.22824">
        <ele>33</ele>
        <time>2021-02-21T09:29:11Z</time>
      </trkpt>
      <trkpt lat="49.411" lon="0.22821">
        <ele>33</ele>
        <time>2021-02-21T09:29:15Z</time>
      </trkpt>
      <trkpt lat="49.4109" lon="0.22814">
        <ele>33</ele>
        <time>2021-02-21T09:29:24Z</time>
      </trkpt>
      <trkpt lat="49.41086" lon="0.2281">
        <ele>33</ele>
        <time>2021-02-21T09:29:28Z</time>
      </trkpt>
      <trkpt lat="49.41073" lon="0.22802">
        <ele>33</ele>
        <time>2021-02-21T09:29:40Z</time>
      </trkpt>
      <trkpt lat="49.41068" lon="0.22801">
        <ele>34</ele>
        <time>2021-02-21T09:29:44Z</time>
      </trkpt>
      <trkpt lat="49.41063" lon="0.228">
        <ele>35</ele>
        <time>2021-02-21T09:29:48Z</time>
      </trkpt>
      <trkpt lat="49.41058" lon="0.22796">
        <ele>35</ele>
        <time>2021-02-21T09:29:53Z</time>
      </trkpt>
      <trkpt lat="49.41054" lon="0.22791">
        <ele>35</ele>
        <time>2021-02-21T09:29:57Z</time>
      </trkpt>
      <trkpt lat="49.41048" lon="0.22789">
        <ele>35</ele>
        <time>2021-02-21T09:30:02Z</time>
      </trkpt>
      <trkpt lat="49.41043" lon="0.22786">
        <ele>36</ele>
        <time>2021-02-21T09:30:06Z</time>
      </trkpt>
      <trkpt lat="49.41039" lon="0.22784">
        <ele>36</ele>
        <time>2021-02-21T09:30:10Z</time>
      </trkpt>
      <trkpt lat="49.41033" lon="0.22785">
        <ele>36</ele>
        <time>2021-02-21T09:30:14Z</time>
      </trkpt>
      <trkpt lat="49.41028" lon="0.22785">
        <ele>36</ele>
        <time>2021-02-21T09:30:19Z</time>
      </trkpt>
      <trkpt lat="49.40988" lon="0.22778">
        <ele>38</ele>
        <time>2021-02-21T09:30:52Z</time>
      </trkpt>
      <trkpt lat="49.40984" lon="0.22777">
        <ele>38</ele>
        <time>2021-02-21T09:30:56Z</time>
      </trkpt>
      <trkpt lat="49.40978" lon="0.22777">
        <ele>38</ele>
        <time>2021-02-21T09:31:01Z</time>
      </trkpt>
      <trkpt lat="49.40973" lon="0.22775">
        <ele>38</ele>
        <time>2021-02-21T09:31:05Z</time>
      </trkpt>
      <trkpt lat="49.40964" lon="0.22769">
        <ele>39</ele>
        <time>2021-02-21T09:31:23Z</time>
      </trkpt>
      <trkpt lat="49.40944" lon="0.22765">
        <ele>39</ele>
        <time>2021-02-21T09:31:39Z</time>
      </trkpt>
      <trkpt lat="49.40917" lon="0.22761">
        <ele>39</ele>
        <time>2021-02-21T09:32:00Z</time>
      </trkpt>
      <trkpt lat="49.40911" lon="0.22764">
        <ele>39</ele>
        <time>2021-02-21T09:32:07Z</time>
      </trkpt>
      <trkpt lat="49.40901" lon="0.2276">
        <ele>39</ele>
        <time>2021-02-21T09:32:18Z</time>
      </trkpt>
      <trkpt lat="49.40892" lon="0.22751">
        <ele>39</ele>
        <time>2021-02-21T09:32:26Z</time>
      </trkpt>
      <trkpt lat="49.40874" lon="0.22746">
        <ele>38</ele>
        <time>2021-02-21T09:32:43Z</time>
      </trkpt>
      <trkpt lat="49.4087" lon="0.22743">
        <ele>38</ele>
        <time>2021-02-21T09:32:52Z</time>
      </trkpt>
      <trkpt lat="49.40864" lon="0.22739">
        <ele>37</ele>
        <time>2021-02-21T09:32:58Z</time>
      </trkpt>
      <trkpt lat="49.40859" lon="0.22738">
        <ele>37</ele>
        <time>2021-02-21T09:33:01Z</time>
      </trkpt>
      <trkpt lat="49.40845" lon="0.22732">
        <ele>37</ele>
        <time>2021-02-21T09:33:13Z</time>
      </trkpt>
      <trkpt lat="49.40819" lon="0.2272">
        <ele>36</ele>
        <time>2021-02-21T09:33:36Z</time>
      </trkpt>
      <trkpt lat="49.40808" lon="0.22716">
        <ele>36</ele>
        <time>2021-02-21T09:33:44Z</time>
      </trkpt>
      <trkpt lat="49.40795" lon="0.22709">
        <ele>35</ele>
        <time>2021-02-21T09:33:56Z</time>
      </trkpt>
      <trkpt lat="49.4079" lon="0.22706">
        <ele>35</ele>
        <time>2021-02-21T09:34:01Z</time>
      </trkpt>
      <trkpt lat="49.40783" lon="0.22705">
        <ele>35</ele>
        <time>2021-02-21T09:34:07Z</time>
      </trkpt>
      <trkpt lat="49.40742" lon="0.22694">
        <ele>33</ele>
        <time>2021-02-21T09:34:45Z</time>
      </trkpt>
      <trkpt lat="49.40736" lon="0.22694">
        <ele>32</ele>
        <time>2021-02-21T09:34:50Z</time>
      </trkpt>
      <trkpt lat="49.40726" lon="0.22688">
        <ele>32</ele>
        <time>2021-02-21T09:34:57Z</time>
      </trkpt>
      <trkpt lat="49.4072" lon="0.22687">
        <ele>31</ele>
        <time>2021-02-21T09:35:01Z</time>
      </trkpt>
      <trkpt lat="49.40711" lon="0.22682">
        <ele>31</ele>
        <time>2021-02-21T09:35:08Z</time>
      </trkpt>
      <trkpt lat="49.40706" lon="0.22677">
        <ele>31</ele>
        <time>2021-02-21T09:35:12Z</time>
      </trkpt>
      <trkpt lat="49.40698" lon="0.22668">
        <ele>30</ele>
        <time>2021-02-21T09:35:21Z</time>
      </trkpt>
      <trkpt lat="49.40693" lon="0.22668">
        <ele>30</ele>
        <time>2021-02-21T09:35:25Z</time>
      </trkpt>
      <trkpt lat="49.40689" lon="0.22663">
        <ele>30</ele>
        <time>2021-02-21T09:35:29Z</time>
      </trkpt>
      <trkpt lat="49.40684" lon="0.22659">
        <ele>29</ele>
        <time>2021-02-21T09:35:34Z</time>
      </trkpt>
      <trkpt lat="49.40677" lon="0.22658">
        <ele>29</ele>
        <time>2021-02-21T09:35:40Z</time>
      </trkpt>
      <trkpt lat="49.40644" lon="0.22632">
        <ele>27</ele>
        <time>2021-02-21T09:36:13Z</time>
      </trkpt>
      <trkpt lat="49.40614" lon="0.22612">
        <ele>27</ele>
        <time>2021-02-21T09:36:36Z</time>
      </trkpt>
      <trkpt lat="49.40609" lon="0.22611">
        <ele>27</ele>
        <time>2021-02-21T09:36:39Z</time>
      </trkpt>
      <trkpt lat="49.40605" lon="0.22607">
        <ele>27</ele>
        <time>2021-02-21T09:36:43Z</time>
      </trkpt>
      <trkpt lat="49.40586" lon="0.22594">
        <ele>26</ele>
        <time>2021-02-21T09:37:01Z</time>
      </trkpt>
      <trkpt lat="49.40581" lon="0.22592">
        <ele>26</ele>
        <time>2021-02-21T09:37:05Z</time>
      </trkpt>
      <trkpt lat="49.40577" lon="0.22589">
        <ele>27</ele>
        <time>2021-02-21T09:37:08Z</time>
      </trkpt>
      <trkpt lat="49.40566" lon="0.22582">
        <ele>26</ele>
        <time>2021-02-21T09:37:21Z</time>
      </trkpt>
      <trkpt lat="49.40564" lon="0.22575">
        <ele>26</ele>
        <time>2021-02-21T09:37:26Z</time>
      </trkpt>
      <trkpt lat="49.4056" lon="0.22566">
        <ele>26</ele>
        <time>2021-02-21T09:37:37Z</time>
      </trkpt>
      <trkpt lat="49.40556" lon="0.22562">
        <ele>26</ele>
        <time>2021-02-21T09:37:41Z</time>
      </trkpt>
      <trkpt lat="49.40548" lon="0.22558">
        <ele>26</ele>
        <time>2021-02-21T09:37:50Z</time>
      </trkpt>
      <trkpt lat="49.40544" lon="0.22552">
        <ele>26</ele>
        <time>2021-02-21T09:38:00Z</time>
      </trkpt>
      <trkpt lat="49.40542" lon="0.22542">
        <ele>25</ele>
        <time>2021-02-21T09:38:18Z</time>
      </trkpt>
      <trkpt lat="49.40537" lon="0.22532">
        <ele>25</ele>
        <time>2021-02-21T09:38:42Z</time>
      </trkpt>
      <trkpt lat="49.4053" lon="0.22529">
        <ele>25</ele>
        <time>2021-02-21T09:38:49Z</time>
      </trkpt>
      <trkpt lat="49.40527" lon="0.22522">
        <ele>25</ele>
        <time>2021-02-21T09:38:54Z</time>
      </trkpt>
      <trkpt lat="49.40528" lon="0.22514">
        <ele>25</ele>
        <time>2021-02-21T09:38:59Z</time>
      </trkpt>
      <trkpt lat="49.40522" lon="0.22513">
        <ele>25</ele>
        <time>2021-02-21T09:39:07Z</time>
      </trkpt>
      <trkpt lat="49.40514" lon="0.22501">
        <ele>26</ele>
        <time>2021-02-21T09:39:16Z</time>
      </trkpt>
      <trkpt lat="49.40512" lon="0.22496">
        <ele>27</ele>
        <time>2021-02-21T09:39:20Z</time>
      </trkpt>
      <trkpt lat="49.40509" lon="0.2249">
        <ele>27</ele>
        <time>2021-02-21T09:39:23Z</time>
      </trkpt>
      <trkpt lat="49.40507" lon="0.22484">
        <ele>27</ele>
        <time>2021-02-21T09:39:27Z</time>
      </trkpt>
      <trkpt lat="49.40501" lon="0.22481">
        <ele>27</ele>
        <time>2021-02-21T09:39:45Z</time>
      </trkpt>
      <trkpt lat="49.40501" lon="0.22474">
        <ele>27</ele>
        <time>2021-02-21T09:39:49Z</time>
      </trkpt>
      <trkpt lat="49.40498" lon="0.22461">
        <ele>26</ele>
        <time>2021-02-21T09:40:03Z</time>
      </trkpt>
      <trkpt lat="49.40494" lon="0.22456">
        <ele>27</ele>
        <time>2021-02-21T09:40:07Z</time>
      </trkpt>
      <trkpt lat="49.40488" lon="0.22448">
        <ele>27</ele>
        <time>2021-02-21T09:40:26Z</time>
      </trkpt>
      <trkpt lat="49.40484" lon="0.2244">
        <ele>27</ele>
        <time>2021-02-21T09:40:31Z</time>
      </trkpt>
      <trkpt lat="49.40471" lon="0.22424">
        <ele>29</ele>
        <time>2021-02-21T09:40:49Z</time>
      </trkpt>
      <trkpt lat="49.40448" lon="0.22383">
        <ele>31</ele>
        <time>2021-02-21T09:41:20Z</time>
      </trkpt>
      <trkpt lat="49.40423" lon="0.22347">
        <ele>34</ele>
        <time>2021-02-21T09:41:47Z</time>
      </trkpt>
      <trkpt lat="49.40417" lon="0.22344">
        <ele>35</ele>
        <time>2021-02-21T09:41:55Z</time>
      </trkpt>
      <trkpt lat="49.40407" lon="0.2232">
        <ele>37</ele>
        <time>2021-02-21T09:42:34Z</time>
      </trkpt>
      <trkpt lat="49.40403" lon="0.22314">
        <ele>37</ele>
        <time>2021-02-21T09:42:39Z</time>
      </trkpt>
      <trkpt lat="49.40397" lon="0.22302">
        <ele>38</ele>
        <time>2021-02-21T09:42:47Z</time>
      </trkpt>
      <trkpt lat="49.40395" lon="0.22295">
        <ele>38</ele>
        <time>2021-02-21T09:42:51Z</time>
      </trkpt>
      <trkpt lat="49.40389" lon="0.22282">
        <ele>39</ele>
        <time>2021-02-21T09:43:00Z</time>
      </trkpt>
      <trkpt lat="49.40388" lon="0.22275">
        <ele>39</ele>
        <time>2021-02-21T09:43:04Z</time>
      </trkpt>
      <trkpt lat="49.40383" lon="0.22254">
        <ele>40</ele>
        <time>2021-02-21T09:43:17Z</time>
      </trkpt>
      <trkpt lat="49.40373" lon="0.22231">
        <ele>41</ele>
        <time>2021-02-21T09:43:32Z</time>
      </trkpt>
      <trkpt lat="49.40372" lon="0.22224">
        <ele>42</ele>
        <time>2021-02-21T09:43:36Z</time>
      </trkpt>
      <trkpt lat="49.40364" lon="0.22212">
        <ele>42</ele>
        <time>2021-02-21T09:43:44Z</time>
      </trkpt>
      <trkpt lat="49.40358" lon="0.22203">
        <ele>42</ele>
        <time>2021-02-21T09:43:52Z</time>
      </trkpt>
      <trkpt lat="49.40324" lon="0.22184">
        <ele>44</ele>
        <time>2021-02-21T09:44:22Z</time>
      </trkpt>
      <trkpt lat="49.40319" lon="0.2218">
        <ele>45</ele>
        <time>2021-02-21T09:44:28Z</time>
      </trkpt>
      <trkpt lat="49.40319" lon="0.22174">
        <ele>46</ele>
        <time>2021-02-21T09:47:45Z</time>
      </trkpt>
      <trkpt lat="49.40311" lon="0.22174">
        <ele>46</ele>
        <time>2021-02-21T09:50:33Z</time>
      </trkpt>
      <trkpt lat="49.403" lon="0.22168">
        <ele>46</ele>
        <time>2021-02-21T09:50:44Z</time>
      </trkpt>
      <trkpt lat="49.4026" lon="0.2215">
        <ele>46</ele>
        <time>2021-02-21T09:51:17Z</time>
      </trkpt>
      <trkpt lat="49.40254" lon="0.22148">
        <ele>46</ele>
        <time>2021-02-21T09:51:21Z</time>
      </trkpt>
      <trkpt lat="49.40239" lon="0.2214">
        <ele>46</ele>
        <time>2021-02-21T09:51:35Z</time>
      </trkpt>
      <trkpt lat="49.40208" lon="0.22118">
        <ele>47</ele>
        <time>2021-02-21T09:52:02Z</time>
      </trkpt>
      <trkpt lat="49.40204" lon="0.22117">
        <ele>47</ele>
        <time>2021-02-21T09:52:06Z</time>
      </trkpt>
      <trkpt lat="49.40167" lon="0.22092">
        <ele>49</ele>
        <time>2021-02-21T09:52:40Z</time>
      </trkpt>
      <trkpt lat="49.40149" lon="0.22079">
        <ele>50</ele>
        <time>2021-02-21T09:52:57Z</time>
      </trkpt>
      <trkpt lat="49.40124" lon="0.22066">
        <ele>52</ele>
        <time>2021-02-21T09:53:21Z</time>
      </trkpt>
      <trkpt lat="49.40113" lon="0.22059">
        <ele>52</ele>
        <time>2021-02-21T09:53:31Z</time>
      </trkpt>
      <trkpt lat="49.40098" lon="0.22054">
        <ele>52</ele>
        <time>2021-02-21T09:53:44Z</time>
      </trkpt>
      <trkpt lat="49.40093" lon="0.22055">
        <ele>52</ele>
        <time>2021-02-21T09:53:49Z</time>
      </trkpt>
      <trkpt lat="49.40086" lon="0.22052">
        <ele>52</ele>
        <time>2021-02-21T09:54:06Z</time>
      </trkpt>
      <trkpt lat="49.40053" lon="0.22035">
        <ele>53</ele>
        <time>2021-02-21T09:54:35Z</time>
      </trkpt>
      <trkpt lat="49.40048" lon="0.22034">
        <ele>53</ele>
        <time>2021-02-21T09:54:39Z</time>
      </trkpt>
      <trkpt lat="49.40036" lon="0.22031">
        <ele>53</ele>
        <time>2021-02-21T09:54:49Z</time>
      </trkpt>
      <trkpt lat="49.40032" lon="0.22028">
        <ele>53</ele>
        <time>2021-02-21T09:54:53Z</time>
      </trkpt>
      <trkpt lat="49.4002" lon="0.22025">
        <ele>53</ele>
        <time>2021-02-21T09:55:00Z</time>
      </trkpt>
      <trkpt lat="49.40006" lon="0.22017">
        <ele>53</ele>
        <time>2021-02-21T09:55:12Z</time>
      </trkpt>
      <trkpt lat="49.39995" lon="0.22009">
        <ele>53</ele>
        <time>2021-02-21T09:55:20Z</time>
      </trkpt>
      <trkpt lat="49.39991" lon="0.22005">
        <ele>54</ele>
        <time>2021-02-21T09:55:24Z</time>
      </trkpt>
      <trkpt lat="49.39978" lon="0.21993">
        <ele>54</ele>
        <time>2021-02-21T09:55:35Z</time>
      </trkpt>
      <trkpt lat="49.39973" lon="0.2199">
        <ele>54</ele>
        <time>2021-02-21T09:55:39Z</time>
      </trkpt>
      <trkpt lat="49.39968" lon="0.21985">
        <ele>53</ele>
        <time>2021-02-21T09:55:43Z</time>
      </trkpt>
      <trkpt lat="49.39965" lon="0.2198">
        <ele>53</ele>
        <time>2021-02-21T09:55:47Z</time>
      </trkpt>
      <trkpt lat="49.39959" lon="0.21968">
        <ele>52</ele>
        <time>2021-02-21T09:55:55Z</time>
      </trkpt>
      <trkpt lat="49.39955" lon="0.21961">
        <ele>52</ele>
        <time>2021-02-21T09:55:59Z</time>
      </trkpt>
      <trkpt lat="49.39953" lon="0.21954">
        <ele>51</ele>
        <time>2021-02-21T09:56:03Z</time>
      </trkpt>
      <trkpt lat="49.3995" lon="0.21947">
        <ele>51</ele>
        <time>2021-02-21T09:56:08Z</time>
      </trkpt>
      <trkpt lat="49.39946" lon="0.21942">
        <ele>51</ele>
        <time>2021-02-21T09:56:12Z</time>
      </trkpt>
      <trkpt lat="49.3994" lon="0.21938">
        <ele>50</ele>
        <time>2021-02-21T09:56:17Z</time>
      </trkpt>
      <trkpt lat="49.39935" lon="0.21938">
        <ele>50</ele>
        <time>2021-02-21T09:56:20Z</time>
      </trkpt>
      <trkpt lat="49.3993" lon="0.2194">
        <ele>50</ele>
        <time>2021-02-21T09:56:24Z</time>
      </trkpt>
      <trkpt lat="49.39925" lon="0.21941">
        <ele>49</ele>
        <time>2021-02-21T09:56:28Z</time>
      </trkpt>
      <trkpt lat="49.39921" lon="0.21946">
        <ele>50</ele>
        <time>2021-02-21T09:56:32Z</time>
      </trkpt>
      <trkpt lat="49.39913" lon="0.21949">
        <ele>50</ele>
        <time>2021-02-21T09:57:02Z</time>
      </trkpt>
      <trkpt lat="49.39901" lon="0.2196">
        <ele>49</ele>
        <time>2021-02-21T09:57:13Z</time>
      </trkpt>
      <trkpt lat="49.39896" lon="0.21962">
        <ele>49</ele>
        <time>2021-02-21T09:57:17Z</time>
      </trkpt>
      <trkpt lat="49.39891" lon="0.21961">
        <ele>49</ele>
        <time>2021-02-21T09:57:21Z</time>
      </trkpt>
      <trkpt lat="49.39886" lon="0.21958">
        <ele>49</ele>
        <time>2021-02-21T09:57:24Z</time>
      </trkpt>
      <trkpt lat="49.39876" lon="0.21957">
        <ele>50</ele>
        <time>2021-02-21T09:57:33Z</time>
      </trkpt>
      <trkpt lat="49.39872" lon="0.21955">
        <ele>49</ele>
        <time>2021-02-21T09:57:36Z</time>
      </trkpt>
      <trkpt lat="49.39855" lon="0.2195">
        <ele>50</ele>
        <time>2021-02-21T09:57:48Z</time>
      </trkpt>
      <trkpt lat="49.39852" lon="0.21947">
        <ele>50</ele>
        <time>2021-02-21T09:57:52Z</time>
      </trkpt>
      <trkpt lat="49.39842" lon="0.21944">
        <ele>51</ele>
        <time>2021-02-21T09:58:00Z</time>
      </trkpt>
      <trkpt lat="49.39807" lon="0.21919">
        <ele>52</ele>
        <time>2021-02-21T09:58:33Z</time>
      </trkpt>
      <trkpt lat="49.39803" lon="0.21916">
        <ele>53</ele>
        <time>2021-02-21T09:58:37Z</time>
      </trkpt>
      <trkpt lat="49.39799" lon="0.21914">
        <ele>53</ele>
        <time>2021-02-21T09:58:40Z</time>
      </trkpt>
      <trkpt lat="49.39795" lon="0.2191">
        <ele>53</ele>
        <time>2021-02-21T09:58:44Z</time>
      </trkpt>
      <trkpt lat="49.3979" lon="0.21909">
        <ele>53</ele>
        <time>2021-02-21T09:58:48Z</time>
      </trkpt>
      <trkpt lat="49.39776" lon="0.21896">
        <ele>53</ele>
        <time>2021-02-21T09:59:02Z</time>
      </trkpt>
      <trkpt lat="49.39765" lon="0.21891">
        <ele>53</ele>
        <time>2021-02-21T09:59:12Z</time>
      </trkpt>
      <trkpt lat="49.3976" lon="0.21887">
        <ele>54</ele>
        <time>2021-02-21T09:59:16Z</time>
      </trkpt>
      <trkpt lat="49.39756" lon="0.21886">
        <ele>54</ele>
        <time>2021-02-21T09:59:20Z</time>
      </trkpt>
      <trkpt lat="49.39751" lon="0.21884">
        <ele>54</ele>
        <time>2021-02-21T09:59:24Z</time>
      </trkpt>
      <trkpt lat="49.39747" lon="0.21881">
        <ele>54</ele>
        <time>2021-02-21T09:59:28Z</time>
      </trkpt>
      <trkpt lat="49.39742" lon="0.21879">
        <ele>54</ele>
        <time>2021-02-21T09:59:32Z</time>
      </trkpt>
      <trkpt lat="49.39727" lon="0.21871">
        <ele>54</ele>
        <time>2021-02-21T09:59:45Z</time>
      </trkpt>
      <trkpt lat="49.39726" lon="0.21864">
        <ele>54</ele>
        <time>2021-02-21T09:59:48Z</time>
      </trkpt>
      <trkpt lat="49.3972" lon="0.21863">
        <ele>54</ele>
        <time>2021-02-21T09:59:52Z</time>
      </trkpt>
      <trkpt lat="49.39713" lon="0.21862">
        <ele>54</ele>
        <time>2021-02-21T10:00:04Z</time>
      </trkpt>
      <trkpt lat="49.39704" lon="0.21856">
        <ele>53</ele>
        <time>2021-02-21T10:00:12Z</time>
      </trkpt>
      <trkpt lat="49.39695" lon="0.21851">
        <ele>54</ele>
        <time>2021-02-21T10:00:21Z</time>
      </trkpt>
      <trkpt lat="49.39686" lon="0.21844">
        <ele>55</ele>
        <time>2021-02-21T10:00:29Z</time>
      </trkpt>
      <trkpt lat="49.39676" lon="0.21842">
        <ele>55</ele>
        <time>2021-02-21T10:00:37Z</time>
      </trkpt>
      <trkpt lat="49.39672" lon="0.21845">
        <ele>55</ele>
        <time>2021-02-21T10:00:40Z</time>
      </trkpt>
      <trkpt lat="49.39669" lon="0.2185">
        <ele>55</ele>
        <time>2021-02-21T10:00:44Z</time>
      </trkpt>
      <trkpt lat="49.39667" lon="0.21857">
        <ele>54</ele>
        <time>2021-02-21T10:00:47Z</time>
      </trkpt>
      <trkpt lat="49.39664" lon="0.21862">
        <ele>53</ele>
        <time>2021-02-21T10:00:53Z</time>
      </trkpt>
      <trkpt lat="49.39662" lon="0.2188">
        <ele>52</ele>
        <time>2021-02-21T10:01:04Z</time>
      </trkpt>
      <trkpt lat="49.3966" lon="0.21922">
        <ele>48</ele>
        <time>2021-02-21T10:01:30Z</time>
      </trkpt>
      <trkpt lat="49.39657" lon="0.21941">
        <ele>46</ele>
        <time>2021-02-21T10:01:43Z</time>
      </trkpt>
      <trkpt lat="49.39658" lon="0.21959">
        <ele>44</ele>
        <time>2021-02-21T10:01:56Z</time>
      </trkpt>
      <trkpt lat="49.39661" lon="0.21967">
        <ele>44</ele>
        <time>2021-02-21T10:02:00Z</time>
      </trkpt>
      <trkpt lat="49.39664" lon="0.21992">
        <ele>42</ele>
        <time>2021-02-21T10:02:13Z</time>
      </trkpt>
      <trkpt lat="49.39663" lon="0.21999">
        <ele>42</ele>
        <time>2021-02-21T10:02:17Z</time>
      </trkpt>
      <trkpt lat="49.39657" lon="0.22006">
        <ele>42</ele>
        <time>2021-02-21T10:02:24Z</time>
      </trkpt>
      <trkpt lat="49.39655" lon="0.22015">
        <ele>42</ele>
        <time>2021-02-21T10:02:29Z</time>
      </trkpt>
      <trkpt lat="49.39652" lon="0.2202">
        <ele>42</ele>
        <time>2021-02-21T10:02:32Z</time>
      </trkpt>
      <trkpt lat="49.39644" lon="0.2205">
        <ele>43</ele>
        <time>2021-02-21T10:02:49Z</time>
      </trkpt>
      <trkpt lat="49.39642" lon="0.22066">
        <ele>45</ele>
        <time>2021-02-21T10:02:58Z</time>
      </trkpt>
      <trkpt lat="49.39641" lon="0.22074">
        <ele>45</ele>
        <time>2021-02-21T10:03:02Z</time>
      </trkpt>
      <trkpt lat="49.39641" lon="0.22085">
        <ele>45</ele>
        <time>2021-02-21T10:03:09Z</time>
      </trkpt>
      <trkpt lat="49.39641" lon="0.22093">
        <ele>46</ele>
        <time>2021-02-21T10:03:14Z</time>
      </trkpt>
      <trkpt lat="49.3964" lon="0.22102">
        <ele>47</ele>
        <time>2021-02-21T10:03:19Z</time>
      </trkpt>
      <trkpt lat="49.39637" lon="0.22108">
        <ele>47</ele>
        <time>2021-02-21T10:03:24Z</time>
      </trkpt>
      <trkpt lat="49.3963" lon="0.2212">
        <ele>48</ele>
        <time>2021-02-21T10:03:32Z</time>
      </trkpt>
      <trkpt lat="49.39624" lon="0.22127">
        <ele>47</ele>
        <time>2021-02-21T10:03:43Z</time>
      </trkpt>
      <trkpt lat="49.39614" lon="0.22137">
        <ele>47</ele>
        <time>2021-02-21T10:03:54Z</time>
      </trkpt>
      <trkpt lat="49.3959" lon="0.22162">
        <ele>49</ele>
        <time>2021-02-21T10:04:19Z</time>
      </trkpt>
      <trkpt lat="49.39585" lon="0.22164">
        <ele>49</ele>
        <time>2021-02-21T10:04:24Z</time>
      </trkpt>
      <trkpt lat="49.39567" lon="0.22189">
        <ele>51</ele>
        <time>2021-02-21T10:04:56Z</time>
      </trkpt>
      <trkpt lat="49.39563" lon="0.22195">
        <ele>52</ele>
        <time>2021-02-21T10:05:02Z</time>
      </trkpt>
      <trkpt lat="49.39556" lon="0.22199">
        <ele>52</ele>
        <time>2021-02-21T10:05:08Z</time>
      </trkpt>
      <trkpt lat="49.39551" lon="0.22199">
        <ele>53</ele>
        <time>2021-02-21T10:05:12Z</time>
      </trkpt>
      <trkpt lat="49.3952" lon="0.2221">
        <ele>55</ele>
        <time>2021-02-21T10:05:48Z</time>
      </trkpt>
      <trkpt lat="49.39516" lon="0.2221">
        <ele>56</ele>
        <time>2021-02-21T10:05:54Z</time>
      </trkpt>
      <trkpt lat="49.39511" lon="0.2221">
        <ele>57</ele>
        <time>2021-02-21T10:05:59Z</time>
      </trkpt>
      <trkpt lat="49.39506" lon="0.22214">
        <ele>57</ele>
        <time>2021-02-21T10:06:04Z</time>
      </trkpt>
      <trkpt lat="49.39502" lon="0.22214">
        <ele>57</ele>
        <time>2021-02-21T10:06:31Z</time>
      </trkpt>
      <trkpt lat="49.39499" lon="0.22221">
        <ele>58</ele>
        <time>2021-02-21T10:06:35Z</time>
      </trkpt>
      <trkpt lat="49.39495" lon="0.22225">
        <ele>58</ele>
        <time>2021-02-21T10:06:39Z</time>
      </trkpt>
      <trkpt lat="49.39491" lon="0.2223">
        <ele>58</ele>
        <time>2021-02-21T10:06:43Z</time>
      </trkpt>
      <trkpt lat="49.39488" lon="0.22234">
        <ele>58</ele>
        <time>2021-02-21T10:06:47Z</time>
      </trkpt>
      <trkpt lat="49.39484" lon="0.22239">
        <ele>58</ele>
        <time>2021-02-21T10:06:52Z</time>
      </trkpt>
      <trkpt lat="49.3948" lon="0.22243">
        <ele>59</ele>
        <time>2021-02-21T10:06:55Z</time>
      </trkpt>
      <trkpt lat="49.39471" lon="0.2225">
        <ele>59</ele>
        <time>2021-02-21T10:07:04Z</time>
      </trkpt>
      <trkpt lat="49.39465" lon="0.22251">
        <ele>59</ele>
        <time>2021-02-21T10:07:09Z</time>
      </trkpt>
      <trkpt lat="49.39446" lon="0.22262">
        <ele>60</ele>
        <time>2021-02-21T10:07:28Z</time>
      </trkpt>
      <trkpt lat="49.39441" lon="0.22264">
        <ele>60</ele>
        <time>2021-02-21T10:07:32Z</time>
      </trkpt>
      <trkpt lat="49.39436" lon="0.22267">
        <ele>61</ele>
        <time>2021-02-21T10:07:36Z</time>
      </trkpt>
      <trkpt lat="49.39423" lon="0.22266">
        <ele>62</ele>
        <time>2021-02-21T10:07:45Z</time>
      </trkpt>
      <trkpt lat="49.3942" lon="0.22263">
        <ele>62</ele>
        <time>2021-02-21T10:07:54Z</time>
      </trkpt>
      <trkpt lat="49.39416" lon="0.22268">
        <ele>62</ele>
        <time>2021-02-21T10:08:05Z</time>
      </trkpt>
      <trkpt lat="49.39414" lon="0.22274">
        <ele>62</ele>
        <time>2021-02-21T10:08:09Z</time>
      </trkpt>
      <trkpt lat="49.39416" lon="0.2228">
        <ele>62</ele>
        <time>2021-02-21T10:08:14Z</time>
      </trkpt>
      <trkpt lat="49.39419" lon="0.22285">
        <ele>62</ele>
        <time>2021-02-21T10:08:17Z</time>
      </trkpt>
      <trkpt lat="49.39417" lon="0.22295">
        <ele>62</ele>
        <time>2021-02-21T10:08:23Z</time>
      </trkpt>
      <trkpt lat="49.39409" lon="0.22323">
        <ele>62</ele>
        <time>2021-02-21T10:08:42Z</time>
      </trkpt>
      <trkpt lat="49.39399" lon="0.22334">
        <ele>63</ele>
        <time>2021-02-21T10:08:53Z</time>
      </trkpt>
      <trkpt lat="49.39391" lon="0.22356">
        <ele>62</ele>
        <time>2021-02-21T10:09:06Z</time>
      </trkpt>
      <trkpt lat="49.39392" lon="0.22364">
        <ele>63</ele>
        <time>2021-02-21T10:09:32Z</time>
      </trkpt>
      <trkpt lat="49.39389" lon="0.22371">
        <ele>63</ele>
        <time>2021-02-21T10:09:35Z</time>
      </trkpt>
      <trkpt lat="49.39387" lon="0.22387">
        <ele>63</ele>
        <time>2021-02-21T10:09:44Z</time>
      </trkpt>
      <trkpt lat="49.39383" lon="0.22395">
        <ele>63</ele>
        <time>2021-02-21T10:09:48Z</time>
      </trkpt>
      <trkpt lat="49.39381" lon="0.22418">
        <ele>64</ele>
        <time>2021-02-21T10:10:02Z</time>
      </trkpt>
      <trkpt lat="49.39373" lon="0.2244">
        <ele>65</ele>
        <time>2021-02-21T10:10:15Z</time>
      </trkpt>
      <trkpt lat="49.39359" lon="0.22495">
        <ele>64</ele>
        <time>2021-02-21T10:10:47Z</time>
      </trkpt>
      <trkpt lat="49.39354" lon="0.22503">
        <ele>64</ele>
        <time>2021-02-21T10:10:54Z</time>
      </trkpt>
      <trkpt lat="49.39352" lon="0.22516">
        <ele>64</ele>
        <time>2021-02-21T10:11:02Z</time>
      </trkpt>
      <trkpt lat="49.39349" lon="0.22529">
        <ele>63</ele>
        <time>2021-02-21T10:11:10Z</time>
      </trkpt>
      <trkpt lat="49.39345" lon="0.22535">
        <ele>64</ele>
        <time>2021-02-21T10:11:17Z</time>
      </trkpt>
      <trkpt lat="49.39335" lon="0.22542">
        <ele>62</ele>
        <time>2021-02-21T10:11:38Z</time>
      </trkpt>
      <trkpt lat="49.3933" lon="0.22538">
        <ele>62</ele>
        <time>2021-02-21T10:11:46Z</time>
      </trkpt>
      <trkpt lat="49.3933" lon="0.22555">
        <ele>62</ele>
        <time>2021-02-21T10:12:03Z</time>
      </trkpt>
      <trkpt lat="49.39329" lon="0.22573">
        <ele>62</ele>
        <time>2021-02-21T10:12:13Z</time>
      </trkpt>
      <trkpt lat="49.39327" lon="0.22586">
        <ele>63</ele>
        <time>2021-02-21T10:12:23Z</time>
      </trkpt>
      <trkpt lat="49.39327" lon="0.226">
        <ele>63</ele>
        <time>2021-02-21T10:12:32Z</time>
      </trkpt>
      <trkpt lat="49.39327" lon="0.22609">
        <ele>63</ele>
        <time>2021-02-21T10:12:37Z</time>
      </trkpt>
      <trkpt lat="49.39327" lon="0.22616">
        <ele>63</ele>
        <time>2021-02-21T10:12:41Z</time>
      </trkpt>
      <trkpt lat="49.39333" lon="0.22631">
        <ele>63</ele>
        <time>2021-02-21T10:12:49Z</time>
      </trkpt>
      <trkpt lat="49.39337" lon="0.22629">
        <ele>64</ele>
        <time>2021-02-21T10:12:54Z</time>
      </trkpt>
      <trkpt lat="49.39351" lon="0.22612">
        <ele>63</ele>
        <time>2021-02-21T10:13:09Z</time>
      </trkpt>
      <trkpt lat="49.39362" lon="0.22606">
        <ele>62</ele>
        <time>2021-02-21T10:13:23Z</time>
      </trkpt>
      <trkpt lat="49.39366" lon="0.22601">
        <ele>62</ele>
        <time>2021-02-21T10:13:27Z</time>
      </trkpt>
      <trkpt lat="49.39376" lon="0.22597">
        <ele>62</ele>
        <time>2021-02-21T10:13:35Z</time>
      </trkpt>
      <trkpt lat="49.3938" lon="0.22593">
        <ele>62</ele>
        <time>2021-02-21T10:13:39Z</time>
      </trkpt>
      <trkpt lat="49.39414" lon="0.22573">
        <ele>61</ele>
        <time>2021-02-21T10:14:12Z</time>
      </trkpt>
      <trkpt lat="49.39426" lon="0.22568">
        <ele>61</ele>
        <time>2021-02-21T10:14:24Z</time>
      </trkpt>
      <trkpt lat="49.39431" lon="0.22572">
        <ele>60</ele>
        <time>2021-02-21T10:14:28Z</time>
      </trkpt>
      <trkpt lat="49.39435" lon="0.22573">
        <ele>61</ele>
        <time>2021-02-21T10:14:38Z</time>
      </trkpt>
      <trkpt lat="49.39444" lon="0.22567">
        <ele>60</ele>
        <time>2021-02-21T10:14:59Z</time>
      </trkpt>
      <trkpt lat="49.39449" lon="0.2256">
        <ele>61</ele>
        <time>2021-02-21T10:15:10Z</time>
      </trkpt>
      <trkpt lat="49.39454" lon="0.22557">
        <ele>60</ele>
        <time>2021-02-21T10:15:15Z</time>
      </trkpt>
      <trkpt lat="49.39476" lon="0.22545">
        <ele>60</ele>
        <time>2021-02-21T10:15:35Z</time>
      </trkpt>
      <trkpt lat="49.39481" lon="0.22545">
        <ele>60</ele>
        <time>2021-02-21T10:15:39Z</time>
      </trkpt>
      <trkpt lat="49.3949" lon="0.2254">
        <ele>60</ele>
        <time>2021-02-21T10:15:47Z</time>
      </trkpt>
      <trkpt lat="49.39494" lon="0.22534">
        <ele>60</ele>
        <time>2021-02-21T10:15:51Z</time>
      </trkpt>
      <trkpt lat="49.39499" lon="0.22532">
        <ele>59</ele>
        <time>2021-02-21T10:15:55Z</time>
      </trkpt>
      <trkpt lat="49.39502" lon="0.22529">
        <ele>60</ele>
        <time>2021-02-21T10:15:59Z</time>
      </trkpt>
      <trkpt lat="49.39518" lon="0.2251">
        <ele>60</ele>
        <time>2021-02-21T10:16:16Z</time>
      </trkpt>
      <trkpt lat="49.39521" lon="0.22504">
        <ele>59</ele>
        <time>2021-02-21T10:16:20Z</time>
      </trkpt>
      <trkpt lat="49.39525" lon="0.225">
        <ele>59</ele>
        <time>2021-02-21T10:16:24Z</time>
      </trkpt>
      <trkpt lat="49.3953" lon="0.22487">
        <ele>59</ele>
        <time>2021-02-21T10:16:33Z</time>
      </trkpt>
      <trkpt lat="49.39535" lon="0.22481">
        <ele>59</ele>
        <time>2021-02-21T10:16:37Z</time>
      </trkpt>
      <trkpt lat="49.3954" lon="0.22475">
        <ele>59</ele>
        <time>2021-02-21T10:16:43Z</time>
      </trkpt>
      <trkpt lat="49.39543" lon="0.22468">
        <ele>58</ele>
        <time>2021-02-21T10:16:47Z</time>
      </trkpt>
      <trkpt lat="49.39546" lon="0.22463">
        <ele>58</ele>
        <time>2021-02-21T10:16:51Z</time>
      </trkpt>
      <trkpt lat="49.39549" lon="0.22459">
        <ele>58</ele>
        <time>2021-02-21T10:16:55Z</time>
      </trkpt>
      <trkpt lat="49.39556" lon="0.22451">
        <ele>58</ele>
        <time>2021-02-21T10:17:02Z</time>
      </trkpt>
      <trkpt lat="49.39559" lon="0.22444">
        <ele>58</ele>
        <time>2021-02-21T10:17:06Z</time>
      </trkpt>
      <trkpt lat="49.39572" lon="0.22432">
        <ele>58</ele>
        <time>2021-02-21T10:17:20Z</time>
      </trkpt>
      <trkpt lat="49.39576" lon="0.22428">
        <ele>58</ele>
        <time>2021-02-21T10:17:24Z</time>
      </trkpt>
      <trkpt lat="49.39593" lon="0.22418">
        <ele>57</ele>
        <time>2021-02-21T10:17:38Z</time>
      </trkpt>
      <trkpt lat="49.39596" lon="0.22414">
        <ele>57</ele>
        <time>2021-02-21T10:17:41Z</time>
      </trkpt>
      <trkpt lat="49.39614" lon="0.22404">
        <ele>58</ele>
        <time>2021-02-21T10:17:57Z</time>
      </trkpt>
      <trkpt lat="49.39623" lon="0.22396">
        <ele>58</ele>
        <time>2021-02-21T10:18:06Z</time>
      </trkpt>
      <trkpt lat="49.39633" lon="0.22391">
        <ele>58</ele>
        <time>2021-02-21T10:18:20Z</time>
      </trkpt>
      <trkpt lat="49.39647" lon="0.22384">
        <ele>59</ele>
        <time>2021-02-21T10:18:31Z</time>
      </trkpt>
      <trkpt lat="49.39651" lon="0.22386">
        <ele>61</ele>
        <time>2021-02-21T10:20:52Z</time>
      </trkpt>
      <trkpt lat="49.39668" lon="0.2238">
        <ele>62</ele>
        <time>2021-02-21T10:21:09Z</time>
      </trkpt>
      <trkpt lat="49.39673" lon="0.2238">
        <ele>62</ele>
        <time>2021-02-21T10:21:15Z</time>
      </trkpt>
      <trkpt lat="49.39682" lon="0.22378">
        <ele>62</ele>
        <time>2021-02-21T10:21:22Z</time>
      </trkpt>
      <trkpt lat="49.39699" lon="0.22378">
        <ele>62</ele>
        <time>2021-02-21T10:21:35Z</time>
      </trkpt>
      <trkpt lat="49.39704" lon="0.22377">
        <ele>62</ele>
        <time>2021-02-21T10:21:40Z</time>
      </trkpt>
      <trkpt lat="49.39739" lon="0.22384">
        <ele>63</ele>
        <time>2021-02-21T10:22:07Z</time>
      </trkpt>
      <trkpt lat="49.39745" lon="0.22385">
        <ele>63</ele>
        <time>2021-02-21T10:22:12Z</time>
      </trkpt>
      <trkpt lat="49.3975" lon="0.22392">
        <ele>64</ele>
        <time>2021-02-21T10:22:24Z</time>
      </trkpt>
      <trkpt lat="49.39751" lon="0.22402">
        <ele>65</ele>
        <time>2021-02-21T10:22:32Z</time>
      </trkpt>
      <trkpt lat="49.39747" lon="0.22407">
        <ele>66</ele>
        <time>2021-02-21T10:22:40Z</time>
      </trkpt>
      <trkpt lat="49.39725" lon="0.22415">
        <ele>68</ele>
        <time>2021-02-21T10:23:07Z</time>
      </trkpt>
      <trkpt lat="49.39706" lon="0.22415">
        <ele>70</ele>
        <time>2021-02-21T10:23:20Z</time>
      </trkpt>
      <trkpt lat="49.39685" lon="0.22424">
        <ele>72</ele>
        <time>2021-02-21T10:23:40Z</time>
      </trkpt>
      <trkpt lat="49.3968" lon="0.22428">
        <ele>72</ele>
        <time>2021-02-21T10:23:45Z</time>
      </trkpt>
      <trkpt lat="49.39675" lon="0.22433">
        <ele>73</ele>
        <time>2021-02-21T10:23:54Z</time>
      </trkpt>
      <trkpt lat="49.39664" lon="0.22438">
        <ele>73</ele>
        <time>2021-02-21T10:24:02Z</time>
      </trkpt>
      <trkpt lat="49.39659" lon="0.2244">
        <ele>73</ele>
        <time>2021-02-21T10:24:07Z</time>
      </trkpt>
      <trkpt lat="49.39648" lon="0.22446">
        <ele>74</ele>
        <time>2021-02-21T10:24:16Z</time>
      </trkpt>
      <trkpt lat="49.39639" lon="0.22455">
        <ele>74</ele>
        <time>2021-02-21T10:24:25Z</time>
      </trkpt>
      <trkpt lat="49.39634" lon="0.22461">
        <ele>75</ele>
        <time>2021-02-21T10:24:32Z</time>
      </trkpt>
      <trkpt lat="49.3963" lon="0.22464">
        <ele>75</ele>
        <time>2021-02-21T10:24:36Z</time>
      </trkpt>
      <trkpt lat="49.39622" lon="0.22472">
        <ele>76</ele>
        <time>2021-02-21T10:24:45Z</time>
      </trkpt>
      <trkpt lat="49.39603" lon="0.22505">
        <ele>80</ele>
        <time>2021-02-21T10:25:15Z</time>
      </trkpt>
      <trkpt lat="49.39591" lon="0.2252">
        <ele>81</ele>
        <time>2021-02-21T10:25:32Z</time>
      </trkpt>
      <trkpt lat="49.39587" lon="0.22526">
        <ele>82</ele>
        <time>2021-02-21T10:25:37Z</time>
      </trkpt>
      <trkpt lat="49.39582" lon="0.22537">
        <ele>84</ele>
        <time>2021-02-21T10:25:50Z</time>
      </trkpt>
      <trkpt lat="49.39579" lon="0.22547">
        <ele>85</ele>
        <time>2021-02-21T10:25:58Z</time>
      </trkpt>
      <trkpt lat="49.39574" lon="0.22555">
        <ele>86</ele>
        <time>2021-02-21T10:26:06Z</time>
      </trkpt>
      <trkpt lat="49.3957" lon="0.22563">
        <ele>87</ele>
        <time>2021-02-21T10:26:27Z</time>
      </trkpt>
      <trkpt lat="49.39562" lon="0.22589">
        <ele>91</ele>
        <time>2021-02-21T10:26:48Z</time>
      </trkpt>
      <trkpt lat="49.39555" lon="0.22602">
        <ele>93</ele>
        <time>2021-02-21T10:27:01Z</time>
      </trkpt>
      <trkpt lat="49.39553" lon="0.22611">
        <ele>94</ele>
        <time>2021-02-21T10:27:06Z</time>
      </trkpt>
      <trkpt lat="49.39545" lon="0.2262">
        <ele>95</ele>
        <time>2021-02-21T10:27:16Z</time>
      </trkpt>
      <trkpt lat="49.39537" lon="0.22645">
        <ele>97</ele>
        <time>2021-02-21T10:27:32Z</time>
      </trkpt>
      <trkpt lat="49.39533" lon="0.22649">
        <ele>98</ele>
        <time>2021-02-21T10:27:37Z</time>
      </trkpt>
      <trkpt lat="49.39532" lon="0.22658">
        <ele>100</ele>
        <time>2021-02-21T10:27:46Z</time>
      </trkpt>
      <trkpt lat="49.3953" lon="0.22662">
        <ele>100</ele>
        <time>2021-02-21T10:29:42Z</time>
      </trkpt>
      <trkpt lat="49.39526" lon="0.22666">
        <ele>100</ele>
        <time>2021-02-21T10:29:46Z</time>
      </trkpt>
      <trkpt lat="49.39523" lon="0.22668">
        <ele>101</ele>
        <time>2021-02-21T10:29:49Z</time>
      </trkpt>
      <trkpt lat="49.39527" lon="0.2267">
        <ele>101</ele>
        <time>2021-02-21T10:30:31Z</time>
      </trkpt>
      <trkpt lat="49.39533" lon="0.22662">
        <ele>100</ele>
        <time>2021-02-21T10:30:41Z</time>
      </trkpt>
      <trkpt lat="49.39535" lon="0.22657">
        <ele>100</ele>
        <time>2021-02-21T10:30:55Z</time>
      </trkpt>
      <trkpt lat="49.3954" lon="0.22659">
        <ele>100</ele>
        <time>2021-02-21T10:31:27Z</time>
      </trkpt>
      <trkpt lat="49.3954" lon="0.22651">
        <ele>100</ele>
        <time>2021-02-21T10:31:51Z</time>
      </trkpt>
      <trkpt lat="49.39545" lon="0.22647">
        <ele>100</ele>
        <time>2021-02-21T10:31:58Z</time>
      </trkpt>
      <trkpt lat="49.39555" lon="0.22635">
        <ele>100</ele>
        <time>2021-02-21T10:32:15Z</time>
      </trkpt>
      <trkpt lat="49.3956" lon="0.22631">
        <ele>100</ele>
        <time>2021-02-21T10:32:20Z</time>
      </trkpt>
      <trkpt lat="49.39566" lon="0.22626">
        <ele>100</ele>
        <time>2021-02-21T10:32:25Z</time>
      </trkpt>
      <trkpt lat="49.3959" lon="0.22613">
        <ele>100</ele>
        <time>2021-02-21T10:32:44Z</time>
      </trkpt>
      <trkpt lat="49.39602" lon="0.2261">
        <ele>100</ele>
        <time>2021-02-21T10:32:57Z</time>
      </trkpt>
      <trkpt lat="49.39606" lon="0.22607">
        <ele>100</ele>
        <time>2021-02-21T10:33:01Z</time>
      </trkpt>
      <trkpt lat="49.3961" lon="0.22603">
        <ele>100</ele>
        <time>2021-02-21T10:33:05Z</time>
      </trkpt>
      <trkpt lat="49.39619" lon="0.22599">
        <ele>100</ele>
        <time>2021-02-21T10:33:13Z</time>
      </trkpt>
      <trkpt lat="49.39623" lon="0.22597">
        <ele>100</ele>
        <time>2021-02-21T10:33:16Z</time>
      </trkpt>
      <trkpt lat="49.39631" lon="0.22591">
        <ele>100</ele>
        <time>2021-02-21T10:33:22Z</time>
      </trkpt>
      <trkpt lat="49.39641" lon="0.22586">
        <ele>100</ele>
        <time>2021-02-21T10:33:31Z</time>
      </trkpt>
      <trkpt lat="49.39649" lon="0.22584">
        <ele>100</ele>
        <time>2021-02-21T10:33:43Z</time>
      </trkpt>
      <trkpt lat="49.3966" lon="0.22583">
        <ele>101</ele>
        <time>2021-02-21T10:33:54Z</time>
      </trkpt>
      <trkpt lat="49.39665" lon="0.22581">
        <ele>101</ele>
        <time>2021-02-21T10:33:58Z</time>
      </trkpt>
      <trkpt lat="49.39673" lon="0.22583">
        <ele>101</ele>
        <time>2021-02-21T10:34:05Z</time>
      </trkpt>
      <trkpt lat="49.39678" lon="0.22584">
        <ele>101</ele>
        <time>2021-02-21T10:34:11Z</time>
      </trkpt>
      <trkpt lat="49.39683" lon="0.22584">
        <ele>102</ele>
        <time>2021-02-21T10:34:22Z</time>
      </trkpt>
      <trkpt lat="49.3969" lon="0.22584">
        <ele>102</ele>
        <time>2021-02-21T10:34:51Z</time>
      </trkpt>
      <trkpt lat="49.39694" lon="0.22586">
        <ele>102</ele>
        <time>2021-02-21T10:34:56Z</time>
      </trkpt>
      <trkpt lat="49.39698" lon="0.22589">
        <ele>102</ele>
        <time>2021-02-21T10:35:00Z</time>
      </trkpt>
      <trkpt lat="49.39703" lon="0.22597">
        <ele>102</ele>
        <time>2021-02-21T10:35:07Z</time>
      </trkpt>
      <trkpt lat="49.39704" lon="0.22608">
        <ele>103</ele>
        <time>2021-02-21T10:35:13Z</time>
      </trkpt>
      <trkpt lat="49.39707" lon="0.22619">
        <ele>103</ele>
        <time>2021-02-21T10:35:20Z</time>
      </trkpt>
      <trkpt lat="49.39708" lon="0.22626">
        <ele>104</ele>
        <time>2021-02-21T10:35:26Z</time>
      </trkpt>
      <trkpt lat="49.39707" lon="0.22639">
        <ele>105</ele>
        <time>2021-02-21T10:35:35Z</time>
      </trkpt>
      <trkpt lat="49.39706" lon="0.22647">
        <ele>105</ele>
        <time>2021-02-21T10:35:39Z</time>
      </trkpt>
      <trkpt lat="49.39703" lon="0.22656">
        <ele>105</ele>
        <time>2021-02-21T10:35:45Z</time>
      </trkpt>
      <trkpt lat="49.39701" lon="0.22664">
        <ele>105</ele>
        <time>2021-02-21T10:35:49Z</time>
      </trkpt>
      <trkpt lat="49.39698" lon="0.22683">
        <ele>106</ele>
        <time>2021-02-21T10:36:00Z</time>
      </trkpt>
      <trkpt lat="49.39697" lon="0.22698">
        <ele>106</ele>
        <time>2021-02-21T10:36:08Z</time>
      </trkpt>
      <trkpt lat="49.39696" lon="0.22711">
        <ele>106</ele>
        <time>2021-02-21T10:36:15Z</time>
      </trkpt>
      <trkpt lat="49.39696" lon="0.22719">
        <ele>106</ele>
        <time>2021-02-21T10:36:19Z</time>
      </trkpt>
      <trkpt lat="49.39693" lon="0.22738">
        <ele>106</ele>
        <time>2021-02-21T10:36:33Z</time>
      </trkpt>
      <trkpt lat="49.39698" lon="0.2279">
        <ele>107</ele>
        <time>2021-02-21T10:37:06Z</time>
      </trkpt>
      <trkpt lat="49.39699" lon="0.2283">
        <ele>107</ele>
        <time>2021-02-21T10:37:24Z</time>
      </trkpt>
      <trkpt lat="49.39702" lon="0.22838">
        <ele>107</ele>
        <time>2021-02-21T10:37:28Z</time>
      </trkpt>
      <trkpt lat="49.39704" lon="0.22866">
        <ele>108</ele>
        <time>2021-02-21T10:37:43Z</time>
      </trkpt>
      <trkpt lat="49.39704" lon="0.22892">
        <ele>109</ele>
        <time>2021-02-21T10:37:57Z</time>
      </trkpt>
      <trkpt lat="49.39708" lon="0.22922">
        <ele>110</ele>
        <time>2021-02-21T10:38:14Z</time>
      </trkpt>
      <trkpt lat="49.39706" lon="0.22929">
        <ele>110</ele>
        <time>2021-02-21T10:38:18Z</time>
      </trkpt>
      <trkpt lat="49.39705" lon="0.22947">
        <ele>110</ele>
        <time>2021-02-21T10:38:27Z</time>
      </trkpt>
      <trkpt lat="49.39702" lon="0.22957">
        <ele>111</ele>
        <time>2021-02-21T10:38:35Z</time>
      </trkpt>
      <trkpt lat="49.39704" lon="0.22966">
        <ele>111</ele>
        <time>2021-02-21T10:38:39Z</time>
      </trkpt>
      <trkpt lat="49.39701" lon="0.22973">
        <ele>111</ele>
        <time>2021-02-21T10:38:43Z</time>
      </trkpt>
      <trkpt lat="49.39704" lon="0.22981">
        <ele>111</ele>
        <time>2021-02-21T10:38:48Z</time>
      </trkpt>
      <trkpt lat="49.39703" lon="0.23029">
        <ele>112</ele>
        <time>2021-02-21T10:39:17Z</time>
      </trkpt>
      <trkpt lat="49.39706" lon="0.23038">
        <ele>112</ele>
        <time>2021-02-21T10:39:22Z</time>
      </trkpt>
      <trkpt lat="49.39706" lon="0.23047">
        <ele>112</ele>
        <time>2021-02-21T10:39:27Z</time>
      </trkpt>
      <trkpt lat="49.39704" lon="0.23055">
        <ele>112</ele>
        <time>2021-02-21T10:39:31Z</time>
      </trkpt>
      <trkpt lat="49.39704" lon="0.23062">
        <ele>112</ele>
        <time>2021-02-21T10:39:35Z</time>
      </trkpt>
      <trkpt lat="49.39702" lon="0.23069">
        <ele>112</ele>
        <time>2021-02-21T10:39:39Z</time>
      </trkpt>
      <trkpt lat="49.39702" lon="0.23108">
        <ele>112</ele>
        <time>2021-02-21T10:39:59Z</time>
      </trkpt>
      <trkpt lat="49.39701" lon="0.23117">
        <ele>112</ele>
        <time>2021-02-21T10:40:04Z</time>
      </trkpt>
      <trkpt lat="49.39701" lon="0.23125">
        <ele>113</ele>
        <time>2021-02-21T10:40:09Z</time>
      </trkpt>
      <trkpt lat="49.39697" lon="0.2316">
        <ele>112</ele>
        <time>2021-02-21T10:40:29Z</time>
      </trkpt>
      <trkpt lat="49.39698" lon="0.23168">
        <ele>112</ele>
        <time>2021-02-21T10:40:33Z</time>
      </trkpt>
      <trkpt lat="49.39697" lon="0.23175">
        <ele>112</ele>
        <time>2021-02-21T10:40:37Z</time>
      </trkpt>
      <trkpt lat="49.39692" lon="0.23199">
        <ele>111</ele>
        <time>2021-02-21T10:40:50Z</time>
      </trkpt>
      <trkpt lat="49.39691" lon="0.23214">
        <ele>111</ele>
        <time>2021-02-21T10:40:58Z</time>
      </trkpt>
      <trkpt lat="49.39689" lon="0.23222">
        <ele>111</ele>
        <time>2021-02-21T10:41:02Z</time>
      </trkpt>
      <trkpt lat="49.39688" lon="0.2323">
        <ele>111</ele>
        <time>2021-02-21T10:41:06Z</time>
      </trkpt>
      <trkpt lat="49.39687" lon="0.23237">
        <ele>111</ele>
        <time>2021-02-21T10:41:10Z</time>
      </trkpt>
      <trkpt lat="49.39687" lon="0.23245">
        <ele>111</ele>
        <time>2021-02-21T10:41:14Z</time>
      </trkpt>
      <trkpt lat="49.3968" lon="0.23306">
        <ele>111</ele>
        <time>2021-02-21T10:41:48Z</time>
      </trkpt>
      <trkpt lat="49.3968" lon="0.23314">
        <ele>111</ele>
        <time>2021-02-21T10:41:52Z</time>
      </trkpt>
      <trkpt lat="49.39679" lon="0.23321">
        <ele>111</ele>
        <time>2021-02-21T10:41:56Z</time>
      </trkpt>
      <trkpt lat="49.39679" lon="0.23336">
        <ele>111</ele>
        <time>2021-02-21T10:42:04Z</time>
      </trkpt>
      <trkpt lat="49.39674" lon="0.23351">
        <ele>111</ele>
        <time>2021-02-21T10:42:12Z</time>
      </trkpt>
      <trkpt lat="49.39675" lon="0.23361">
        <ele>112</ele>
        <time>2021-02-21T10:42:18Z</time>
      </trkpt>
      <trkpt lat="49.39673" lon="0.23377">
        <ele>112</ele>
        <time>2021-02-21T10:42:26Z</time>
      </trkpt>
      <trkpt lat="49.39672" lon="0.23384">
        <ele>112</ele>
        <time>2021-02-21T10:42:30Z</time>
      </trkpt>
      <trkpt lat="49.39672" lon="0.23391">
        <ele>112</ele>
        <time>2021-02-21T10:42:33Z</time>
      </trkpt>
      <trkpt lat="49.39671" lon="0.23398">
        <ele>112</ele>
        <time>2021-02-21T10:42:37Z</time>
      </trkpt>
      <trkpt lat="49.39671" lon="0.23405">
        <ele>112</ele>
        <time>2021-02-21T10:42:41Z</time>
      </trkpt>
      <trkpt lat="49.3967" lon="0.23412">
        <ele>112</ele>
        <time>2021-02-21T10:42:45Z</time>
      </trkpt>
      <trkpt lat="49.39669" lon="0.23432">
        <ele>112</ele>
        <time>2021-02-21T10:42:55Z</time>
      </trkpt>
      <trkpt lat="49.39669" lon="0.23439">
        <ele>112</ele>
        <time>2021-02-21T10:42:59Z</time>
      </trkpt>
      <trkpt lat="49.39669" lon="0.23472">
        <ele>112</ele>
        <time>2021-02-21T10:43:18Z</time>
      </trkpt>
      <trkpt lat="49.39671" lon="0.23484">
        <ele>112</ele>
        <time>2021-02-21T10:43:24Z</time>
      </trkpt>
      <trkpt lat="49.39674" lon="0.23539">
        <ele>111</ele>
        <time>2021-02-21T10:43:56Z</time>
      </trkpt>
      <trkpt lat="49.39674" lon="0.23599">
        <ele>111</ele>
        <time>2021-02-21T10:44:28Z</time>
      </trkpt>
      <trkpt lat="49.39677" lon="0.23615">
        <ele>111</ele>
        <time>2021-02-21T10:44:37Z</time>
      </trkpt>
      <trkpt lat="49.39676" lon="0.23624">
        <ele>110</ele>
        <time>2021-02-21T10:44:42Z</time>
      </trkpt>
      <trkpt lat="49.39677" lon="0.23656">
        <ele>110</ele>
        <time>2021-02-21T10:44:59Z</time>
      </trkpt>
      <trkpt lat="49.39675" lon="0.23662">
        <ele>110</ele>
        <time>2021-02-21T10:45:04Z</time>
      </trkpt>
      <trkpt lat="49.39677" lon="0.23669">
        <ele>110</ele>
        <time>2021-02-21T10:45:09Z</time>
      </trkpt>
      <trkpt lat="49.39682" lon="0.23673">
        <ele>109</ele>
        <time>2021-02-21T10:45:19Z</time>
      </trkpt>
      <trkpt lat="49.39686" lon="0.23674">
        <ele>110</ele>
        <time>2021-02-21T10:45:23Z</time>
      </trkpt>
      <trkpt lat="49.397" lon="0.23671">
        <ele>109</ele>
        <time>2021-02-21T10:45:33Z</time>
      </trkpt>
      <trkpt lat="49.39704" lon="0.23669">
        <ele>109</ele>
        <time>2021-02-21T10:45:37Z</time>
      </trkpt>
      <trkpt lat="49.39708" lon="0.23668">
        <ele>109</ele>
        <time>2021-02-21T10:45:41Z</time>
      </trkpt>
      <trkpt lat="49.3973" lon="0.23661">
        <ele>108</ele>
        <time>2021-02-21T10:45:58Z</time>
      </trkpt>
      <trkpt lat="49.39768" lon="0.23676">
        <ele>108</ele>
        <time>2021-02-21T10:46:29Z</time>
      </trkpt>
      <trkpt lat="49.39777" lon="0.23677">
        <ele>107</ele>
        <time>2021-02-21T10:46:42Z</time>
      </trkpt>
      <trkpt lat="49.39781" lon="0.23674">
        <ele>107</ele>
        <time>2021-02-21T10:46:46Z</time>
      </trkpt>
      <trkpt lat="49.39785" lon="0.23674">
        <ele>107</ele>
        <time>2021-02-21T10:46:49Z</time>
      </trkpt>
      <trkpt lat="49.39821" lon="0.23654">
        <ele>107</ele>
        <time>2021-02-21T10:47:21Z</time>
      </trkpt>
      <trkpt lat="49.39833" lon="0.23646">
        <ele>107</ele>
        <time>2021-02-21T10:47:31Z</time>
      </trkpt>
      <trkpt lat="49.39849" lon="0.23633">
        <ele>107</ele>
        <time>2021-02-21T10:47:46Z</time>
      </trkpt>
      <trkpt lat="49.39854" lon="0.2363">
        <ele>107</ele>
        <time>2021-02-21T10:47:51Z</time>
      </trkpt>
      <trkpt lat="49.3986" lon="0.2363">
        <ele>107</ele>
        <time>2021-02-21T10:47:55Z</time>
      </trkpt>
      <trkpt lat="49.39868" lon="0.23629">
        <ele>108</ele>
        <time>2021-02-21T10:48:07Z</time>
      </trkpt>
      <trkpt lat="49.39876" lon="0.23628">
        <ele>107</ele>
        <time>2021-02-21T10:48:13Z</time>
      </trkpt>
      <trkpt lat="49.39887" lon="0.23627">
        <ele>107</ele>
        <time>2021-02-21T10:48:25Z</time>
      </trkpt>
      <trkpt lat="49.39903" lon="0.23628">
        <ele>107</ele>
        <time>2021-02-21T10:48:40Z</time>
      </trkpt>
      <trkpt lat="49.39941" lon="0.2361">
        <ele>107</ele>
        <time>2021-02-21T10:49:11Z</time>
      </trkpt>
      <trkpt lat="49.39949" lon="0.23605">
        <ele>107</ele>
        <time>2021-02-21T10:49:18Z</time>
      </trkpt>
      <trkpt lat="49.39977" lon="0.23572">
        <ele>107</ele>
        <time>2021-02-21T10:49:47Z</time>
      </trkpt>
      <trkpt lat="49.39992" lon="0.23541">
        <ele>107</ele>
        <time>2021-02-21T10:50:06Z</time>
      </trkpt>
      <trkpt lat="49.39996" lon="0.23528">
        <ele>107</ele>
        <time>2021-02-21T10:50:13Z</time>
      </trkpt>
      <trkpt lat="49.39999" lon="0.23522">
        <ele>107</ele>
        <time>2021-02-21T10:50:17Z</time>
      </trkpt>
      <trkpt lat="49.40002" lon="0.23515">
        <ele>107</ele>
        <time>2021-02-21T10:50:21Z</time>
      </trkpt>
      <trkpt lat="49.40005" lon="0.2351">
        <ele>107</ele>
        <time>2021-02-21T10:50:30Z</time>
      </trkpt>
      <trkpt lat="49.40009" lon="0.23507">
        <ele>107</ele>
        <time>2021-02-21T10:50:42Z</time>
      </trkpt>
      <trkpt lat="49.40011" lon="0.23486">
        <ele>107</ele>
        <time>2021-02-21T10:51:00Z</time>
      </trkpt>
      <trkpt lat="49.4003" lon="0.23433">
        <ele>106</ele>
        <time>2021-02-21T10:51:30Z</time>
      </trkpt>
      <trkpt lat="49.40034" lon="0.23427">
        <ele>106</ele>
        <time>2021-02-21T10:51:34Z</time>
      </trkpt>
      <trkpt lat="49.40037" lon="0.2342">
        <ele>108</ele>
        <time>2021-02-21T10:51:39Z</time>
      </trkpt>
      <trkpt lat="49.4004" lon="0.23417">
        <ele>107</ele>
        <time>2021-02-21T10:51:43Z</time>
      </trkpt>
      <trkpt lat="49.4004" lon="0.23409">
        <ele>106</ele>
        <time>2021-02-21T10:51:50Z</time>
      </trkpt>
      <trkpt lat="49.40047" lon="0.23401">
        <ele>107</ele>
        <time>2021-02-21T10:52:06Z</time>
      </trkpt>
      <trkpt lat="49.40043" lon="0.23393">
        <ele>106</ele>
        <time>2021-02-21T10:52:23Z</time>
      </trkpt>
      <trkpt lat="49.40043" lon="0.23393">
        <ele>106</ele>
        <time>2021-02-21T10:52:44Z</time>
      </trkpt>
      <trkpt lat="49.4005" lon="0.23389">
        <ele>106</ele>
        <time>2021-02-21T10:52:52Z</time>
      </trkpt>
      <trkpt lat="49.40064" lon="0.23354">
        <ele>106</ele>
        <time>2021-02-21T10:53:12Z</time>
      </trkpt>
      <trkpt lat="49.40069" lon="0.23333">
        <ele>107</ele>
        <time>2021-02-21T10:53:24Z</time>
      </trkpt>
      <trkpt lat="49.40074" lon="0.23329">
        <ele>107</ele>
        <time>2021-02-21T10:53:45Z</time>
      </trkpt>
      <trkpt lat="49.40075" lon="0.23321">
        <ele>107</ele>
        <time>2021-02-21T10:53:48Z</time>
      </trkpt>
      <trkpt lat="49.40075" lon="0.23314">
        <ele>107</ele>
        <time>2021-02-21T10:53:51Z</time>
      </trkpt>
      <trkpt lat="49.40077" lon="0.233">
        <ele>107</ele>
        <time>2021-02-21T10:54:00Z</time>
      </trkpt>
      <trkpt lat="49.40077" lon="0.23291">
        <ele>107</ele>
        <time>2021-02-21T10:54:05Z</time>
      </trkpt>
      <trkpt lat="49.40085" lon="0.23242">
        <ele>106</ele>
        <time>2021-02-21T10:54:31Z</time>
      </trkpt>
      <trkpt lat="49.40087" lon="0.23235">
        <ele>106</ele>
        <time>2021-02-21T10:54:35Z</time>
      </trkpt>
      <trkpt lat="49.40088" lon="0.23227">
        <ele>106</ele>
        <time>2021-02-21T10:54:40Z</time>
      </trkpt>
      <trkpt lat="49.40089" lon="0.23221">
        <ele>105</ele>
        <time>2021-02-21T10:54:44Z</time>
      </trkpt>
      <trkpt lat="49.4009" lon="0.2321">
        <ele>107</ele>
        <time>2021-02-21T10:54:53Z</time>
      </trkpt>
      <trkpt lat="49.40092" lon="0.23203">
        <ele>107</ele>
        <time>2021-02-21T10:54:59Z</time>
      </trkpt>
      <trkpt lat="49.40091" lon="0.2319">
        <ele>106</ele>
        <time>2021-02-21T10:55:07Z</time>
      </trkpt>
      <trkpt lat="49.40093" lon="0.23181">
        <ele>106</ele>
        <time>2021-02-21T10:55:14Z</time>
      </trkpt>
      <trkpt lat="49.40092" lon="0.23173">
        <ele>105</ele>
        <time>2021-02-21T10:55:19Z</time>
      </trkpt>
      <trkpt lat="49.40092" lon="0.23164">
        <ele>105</ele>
        <time>2021-02-21T10:55:28Z</time>
      </trkpt>
      <trkpt lat="49.4009" lon="0.23156">
        <ele>105</ele>
        <time>2021-02-21T10:55:33Z</time>
      </trkpt>
      <trkpt lat="49.4009" lon="0.23138">
        <ele>105</ele>
        <time>2021-02-21T10:55:41Z</time>
      </trkpt>
      <trkpt lat="49.4009" lon="0.2313">
        <ele>105</ele>
        <time>2021-02-21T10:55:46Z</time>
      </trkpt>
      <trkpt lat="49.40089" lon="0.23123">
        <ele>105</ele>
        <time>2021-02-21T10:55:51Z</time>
      </trkpt>
      <trkpt lat="49.40088" lon="0.23104">
        <ele>104</ele>
        <time>2021-02-21T10:56:03Z</time>
      </trkpt>
      <trkpt lat="49.40085" lon="0.23087">
        <ele>104</ele>
        <time>2021-02-21T10:56:11Z</time>
      </trkpt>
      <trkpt lat="49.40084" lon="0.2308">
        <ele>104</ele>
        <time>2021-02-21T10:56:14Z</time>
      </trkpt>
      <trkpt lat="49.40082" lon="0.23063">
        <ele>104</ele>
        <time>2021-02-21T10:56:24Z</time>
      </trkpt>
      <trkpt lat="49.40081" lon="0.23039">
        <ele>103</ele>
        <time>2021-02-21T10:56:38Z</time>
      </trkpt>
      <trkpt lat="49.40068" lon="0.2298">
        <ele>103</ele>
        <time>2021-02-21T10:57:11Z</time>
      </trkpt>
      <trkpt lat="49.40066" lon="0.22971">
        <ele>103</ele>
        <time>2021-02-21T10:57:17Z</time>
      </trkpt>
      <trkpt lat="49.40061" lon="0.22953">
        <ele>103</ele>
        <time>2021-02-21T10:57:28Z</time>
      </trkpt>
      <trkpt lat="49.40041" lon="0.2292">
        <ele>102</ele>
        <time>2021-02-21T10:57:56Z</time>
      </trkpt>
      <trkpt lat="49.40035" lon="0.22897">
        <ele>102</ele>
        <time>2021-02-21T10:58:09Z</time>
      </trkpt>
      <trkpt lat="49.40034" lon="0.22881">
        <ele>101</ele>
        <time>2021-02-21T10:58:17Z</time>
      </trkpt>
      <trkpt lat="49.40037" lon="0.22867">
        <ele>101</ele>
        <time>2021-02-21T10:58:25Z</time>
      </trkpt>
      <trkpt lat="49.40043" lon="0.22861">
        <ele>101</ele>
        <time>2021-02-21T10:58:57Z</time>
      </trkpt>
      <trkpt lat="49.40069" lon="0.22876">
        <ele>101</ele>
        <time>2021-02-21T10:59:23Z</time>
      </trkpt>
      <trkpt lat="49.40075" lon="0.22877">
        <ele>101</ele>
        <time>2021-02-21T10:59:27Z</time>
      </trkpt>
      <trkpt lat="49.40085" lon="0.22879">
        <ele>101</ele>
        <time>2021-02-21T10:59:34Z</time>
      </trkpt>
      <trkpt lat="49.4009" lon="0.2288">
        <ele>101</ele>
        <time>2021-02-21T10:59:38Z</time>
      </trkpt>
      <trkpt lat="49.40102" lon="0.22887">
        <ele>101</ele>
        <time>2021-02-21T10:59:50Z</time>
      </trkpt>
      <trkpt lat="49.40107" lon="0.22893">
        <ele>101</ele>
        <time>2021-02-21T10:59:57Z</time>
      </trkpt>
      <trkpt lat="49.40124" lon="0.22905">
        <ele>100</ele>
        <time>2021-02-21T11:00:15Z</time>
      </trkpt>
      <trkpt lat="49.40129" lon="0.22905">
        <ele>100</ele>
        <time>2021-02-21T11:00:19Z</time>
      </trkpt>
      <trkpt lat="49.40133" lon="0.22909">
        <ele>100</ele>
        <time>2021-02-21T11:00:24Z</time>
      </trkpt>
      <trkpt lat="49.4014" lon="0.22913">
        <ele>101</ele>
        <time>2021-02-21T11:00:29Z</time>
      </trkpt>
      <trkpt lat="49.40144" lon="0.22918">
        <ele>101</ele>
        <time>2021-02-21T11:00:33Z</time>
      </trkpt>
      <trkpt lat="49.40156" lon="0.22925">
        <ele>101</ele>
        <time>2021-02-21T11:00:41Z</time>
      </trkpt>
      <trkpt lat="49.4016" lon="0.22929">
        <ele>101</ele>
        <time>2021-02-21T11:00:45Z</time>
      </trkpt>
      <trkpt lat="49.40166" lon="0.22933">
        <ele>101</ele>
        <time>2021-02-21T11:00:50Z</time>
      </trkpt>
      <trkpt lat="49.40169" lon="0.22938">
        <ele>101</ele>
        <time>2021-02-21T11:00:55Z</time>
      </trkpt>
      <trkpt lat="49.4018" lon="0.22947">
        <ele>101</ele>
        <time>2021-02-21T11:01:05Z</time>
      </trkpt>
      <trkpt lat="49.40191" lon="0.22964">
        <ele>101</ele>
        <time>2021-02-21T11:01:23Z</time>
      </trkpt>
      <trkpt lat="49.40196" lon="0.22968">
        <ele>101</ele>
        <time>2021-02-21T11:01:28Z</time>
      </trkpt>
      <trkpt lat="49.402" lon="0.22973">
        <ele>101</ele>
        <time>2021-02-21T11:01:33Z</time>
      </trkpt>
      <trkpt lat="49.40205" lon="0.22975">
        <ele>101</ele>
        <time>2021-02-21T11:01:37Z</time>
      </trkpt>
      <trkpt lat="49.40223" lon="0.22991">
        <ele>101</ele>
        <time>2021-02-21T11:01:53Z</time>
      </trkpt>
      <trkpt lat="49.40228" lon="0.22992">
        <ele>101</ele>
        <time>2021-02-21T11:01:57Z</time>
      </trkpt>
      <trkpt lat="49.40237" lon="0.23002">
        <ele>101</ele>
        <time>2021-02-21T11:02:06Z</time>
      </trkpt>
      <trkpt lat="49.40271" lon="0.23026">
        <ele>101</ele>
        <time>2021-02-21T11:02:36Z</time>
      </trkpt>
      <trkpt lat="49.40298" lon="0.23061">
        <ele>102</ele>
        <time>2021-02-21T11:03:07Z</time>
      </trkpt>
      <trkpt lat="49.40312" lon="0.23073">
        <ele>101</ele>
        <time>2021-02-21T11:03:20Z</time>
      </trkpt>
      <trkpt lat="49.40354" lon="0.23088">
        <ele>101</ele>
        <time>2021-02-21T11:03:54Z</time>
      </trkpt>
      <trkpt lat="49.40359" lon="0.2309">
        <ele>101</ele>
        <time>2021-02-21T11:03:58Z</time>
      </trkpt>
      <trkpt lat="49.40381" lon="0.23105">
        <ele>101</ele>
        <time>2021-02-21T11:04:20Z</time>
      </trkpt>
      <trkpt lat="49.40386" lon="0.23107">
        <ele>101</ele>
        <time>2021-02-21T11:04:24Z</time>
      </trkpt>
      <trkpt lat="49.40391" lon="0.23109">
        <ele>101</ele>
        <time>2021-02-21T11:04:29Z</time>
      </trkpt>
      <trkpt lat="49.40398" lon="0.23113">
        <ele>101</ele>
        <time>2021-02-21T11:04:35Z</time>
      </trkpt>
      <trkpt lat="49.40404" lon="0.23114">
        <ele>101</ele>
        <time>2021-02-21T11:04:39Z</time>
      </trkpt>
      <trkpt lat="49.40419" lon="0.23126">
        <ele>101</ele>
        <time>2021-02-21T11:04:50Z</time>
      </trkpt>
      <trkpt lat="49.40441" lon="0.23135">
        <ele>101</ele>
        <time>2021-02-21T11:05:09Z</time>
      </trkpt>
      <trkpt lat="49.40445" lon="0.23138">
        <ele>100</ele>
        <time>2021-02-21T11:05:14Z</time>
      </trkpt>
      <trkpt lat="49.40451" lon="0.23141">
        <ele>100</ele>
        <time>2021-02-21T11:05:22Z</time>
      </trkpt>
      <trkpt lat="49.40457" lon="0.23142">
        <ele>101</ele>
        <time>2021-02-21T11:05:27Z</time>
      </trkpt>
      <trkpt lat="49.40461" lon="0.23143">
        <ele>100</ele>
        <time>2021-02-21T11:05:32Z</time>
      </trkpt>
      <trkpt lat="49.40466" lon="0.23145">
        <ele>100</ele>
        <time>2021-02-21T11:05:36Z</time>
      </trkpt>
      <trkpt lat="49.40476" lon="0.2314">
        <ele>100</ele>
        <time>2021-02-21T11:05:45Z</time>
      </trkpt>
      <trkpt lat="49.4048" lon="0.23136">
        <ele>100</ele>
        <time>2021-02-21T11:05:53Z</time>
      </trkpt>
      <trkpt lat="49.40513" lon="0.23101">
        <ele>98</ele>
        <time>2021-02-21T11:06:26Z</time>
      </trkpt>
      <trkpt lat="49.40543" lon="0.23079">
        <ele>96</ele>
        <time>2021-02-21T11:06:58Z</time>
      </trkpt>
      <trkpt lat="49.40548" lon="0.23074">
        <ele>95</ele>
        <time>2021-02-21T11:07:04Z</time>
      </trkpt>
      <trkpt lat="49.40553" lon="0.23069">
        <ele>95</ele>
        <time>2021-02-21T11:07:08Z</time>
      </trkpt>
      <trkpt lat="49.40584" lon="0.23047">
        <ele>92</ele>
        <time>2021-02-21T11:07:36Z</time>
      </trkpt>
      <trkpt lat="49.40616" lon="0.2303">
        <ele>91</ele>
        <time>2021-02-21T11:08:06Z</time>
      </trkpt>
      <trkpt lat="49.40628" lon="0.23027">
        <ele>91</ele>
        <time>2021-02-21T11:08:15Z</time>
      </trkpt>
      <trkpt lat="49.40639" lon="0.23026">
        <ele>91</ele>
        <time>2021-02-21T11:08:23Z</time>
      </trkpt>
      <trkpt lat="49.40653" lon="0.23032">
        <ele>91</ele>
        <time>2021-02-21T11:08:35Z</time>
      </trkpt>
      <trkpt lat="49.40663" lon="0.23032">
        <ele>91</ele>
        <time>2021-02-21T11:08:42Z</time>
      </trkpt>
      <trkpt lat="49.40668" lon="0.23035">
        <ele>91</ele>
        <time>2021-02-21T11:08:46Z</time>
      </trkpt>
      <trkpt lat="49.40673" lon="0.23035">
        <ele>91</ele>
        <time>2021-02-21T11:08:50Z</time>
      </trkpt>
      <trkpt lat="49.40689" lon="0.2304">
        <ele>91</ele>
        <time>2021-02-21T11:09:22Z</time>
      </trkpt>
      <trkpt lat="49.40695" lon="0.23042">
        <ele>92</ele>
        <time>2021-02-21T11:09:26Z</time>
      </trkpt>
      <trkpt lat="49.4073" lon="0.23039">
        <ele>91</ele>
        <time>2021-02-21T11:09:57Z</time>
      </trkpt>
      <trkpt lat="49.4075" lon="0.23044">
        <ele>91</ele>
        <time>2021-02-21T11:10:14Z</time>
      </trkpt>
      <trkpt lat="49.40755" lon="0.23043">
        <ele>91</ele>
        <time>2021-02-21T11:10:18Z</time>
      </trkpt>
      <trkpt lat="49.40771" lon="0.23043">
        <ele>91</ele>
        <time>2021-02-21T11:10:31Z</time>
      </trkpt>
      <trkpt lat="49.40777" lon="0.23046">
        <ele>91</ele>
        <time>2021-02-21T11:10:38Z</time>
      </trkpt>
      <trkpt lat="49.40795" lon="0.23043">
        <ele>90</ele>
        <time>2021-02-21T11:10:53Z</time>
      </trkpt>
      <trkpt lat="49.40824" lon="0.23047">
        <ele>89</ele>
        <time>2021-02-21T11:11:14Z</time>
      </trkpt>
      <trkpt lat="49.40829" lon="0.23049">
        <ele>89</ele>
        <time>2021-02-21T11:11:18Z</time>
      </trkpt>
      <trkpt lat="49.40834" lon="0.23048">
        <ele>89</ele>
        <time>2021-02-21T11:11:22Z</time>
      </trkpt>
      <trkpt lat="49.40845" lon="0.23047">
        <ele>88</ele>
        <time>2021-02-21T11:11:31Z</time>
      </trkpt>
      <trkpt lat="49.4088" lon="0.23039">
        <ele>84</ele>
        <time>2021-02-21T11:12:01Z</time>
      </trkpt>
      <trkpt lat="49.40914" lon="0.23033">
        <ele>79</ele>
        <time>2021-02-21T11:12:27Z</time>
      </trkpt>
      <trkpt lat="49.40926" lon="0.23034">
        <ele>77</ele>
        <time>2021-02-21T11:12:39Z</time>
      </trkpt>
      <trkpt lat="49.40934" lon="0.23029">
        <ele>76</ele>
        <time>2021-02-21T11:12:47Z</time>
      </trkpt>
      <trkpt lat="49.40945" lon="0.23026">
        <ele>73</ele>
        <time>2021-02-21T11:12:59Z</time>
      </trkpt>
      <trkpt lat="49.40949" lon="0.23018">
        <ele>72</ele>
        <time>2021-02-21T11:13:10Z</time>
      </trkpt>
      <trkpt lat="49.40951" lon="0.23012">
        <ele>72</ele>
        <time>2021-02-21T11:13:27Z</time>
      </trkpt>
      <trkpt lat="49.40956" lon="0.2302">
        <ele>72</ele>
        <time>2021-02-21T11:13:49Z</time>
      </trkpt>
      <trkpt lat="49.40963" lon="0.23021">
        <ele>71</ele>
        <time>2021-02-21T11:14:02Z</time>
      </trkpt>
      <trkpt lat="49.40973" lon="0.23023">
        <ele>69</ele>
        <time>2021-02-21T11:14:12Z</time>
      </trkpt>
      <trkpt lat="49.40986" lon="0.23036">
        <ele>67</ele>
        <time>2021-02-21T11:14:23Z</time>
      </trkpt>
      <trkpt lat="49.41001" lon="0.23053">
        <ele>65</ele>
        <time>2021-02-21T11:14:39Z</time>
      </trkpt>
      <trkpt lat="49.41007" lon="0.23056">
        <ele>64</ele>
        <time>2021-02-21T11:14:43Z</time>
      </trkpt>
      <trkpt lat="49.41011" lon="0.23061">
        <ele>64</ele>
        <time>2021-02-21T11:14:47Z</time>
      </trkpt>
      <trkpt lat="49.41043" lon="0.23086">
        <ele>59</ele>
        <time>2021-02-21T11:15:19Z</time>
      </trkpt>
      <trkpt lat="49.41048" lon="0.23091">
        <ele>59</ele>
        <time>2021-02-21T11:15:28Z</time>
      </trkpt>
      <trkpt lat="49.41054" lon="0.231">
        <ele>57</ele>
        <time>2021-02-21T11:15:39Z</time>
      </trkpt>
      <trkpt lat="49.41063" lon="0.23104">
        <ele>55</ele>
        <time>2021-02-21T11:15:50Z</time>
      </trkpt>
      <trkpt lat="49.41073" lon="0.23112">
        <ele>54</ele>
        <time>2021-02-21T11:15:58Z</time>
      </trkpt>
      <trkpt lat="49.41092" lon="0.23116">
        <ele>51</ele>
        <time>2021-02-21T11:16:14Z</time>
      </trkpt>
      <trkpt lat="49.41112" lon="0.2313">
        <ele>48</ele>
        <time>2021-02-21T11:16:33Z</time>
      </trkpt>
      <trkpt lat="49.41117" lon="0.23137">
        <ele>48</ele>
        <time>2021-02-21T11:16:42Z</time>
      </trkpt>
      <trkpt lat="49.41122" lon="0.23142">
        <ele>48</ele>
        <time>2021-02-21T11:16:47Z</time>
      </trkpt>
      <trkpt lat="49.41145" lon="0.23162">
        <ele>47</ele>
        <time>2021-02-21T11:17:09Z</time>
      </trkpt>
      <trkpt lat="49.41149" lon="0.2317">
        <ele>47</ele>
        <time>2021-02-21T11:17:14Z</time>
      </trkpt>
      <trkpt lat="49.41154" lon="0.23175">
        <ele>47</ele>
        <time>2021-02-21T11:17:18Z</time>
      </trkpt>
      <trkpt lat="49.41177" lon="0.23209">
        <ele>47</ele>
        <time>2021-02-21T11:17:46Z</time>
      </trkpt>
      <trkpt lat="49.412" lon="0.23222">
        <ele>46</ele>
        <time>2021-02-21T11:18:04Z</time>
      </trkpt>
      <trkpt lat="49.41204" lon="0.23229">
        <ele>46</ele>
        <time>2021-02-21T11:18:09Z</time>
      </trkpt>
      <trkpt lat="49.41208" lon="0.23234">
        <ele>45</ele>
        <time>2021-02-21T11:18:14Z</time>
      </trkpt>
      <trkpt lat="49.41221" lon="0.23236">
        <ele>45</ele>
        <time>2021-02-21T11:18:24Z</time>
      </trkpt>
      <trkpt lat="49.41228" lon="0.23243">
        <ele>45</ele>
        <time>2021-02-21T11:18:31Z</time>
      </trkpt>
      <trkpt lat="49.41229" lon="0.23253">
        <ele>44</ele>
        <time>2021-02-21T11:18:45Z</time>
      </trkpt>
      <trkpt lat="49.41234" lon="0.2326">
        <ele>44</ele>
        <time>2021-02-21T11:18:50Z</time>
      </trkpt>
      <trkpt lat="49.41271" lon="0.2328">
        <ele>43</ele>
        <time>2021-02-21T11:19:22Z</time>
      </trkpt>
      <trkpt lat="49.41304" lon="0.23316">
        <ele>43</ele>
        <time>2021-02-21T11:19:53Z</time>
      </trkpt>
      <trkpt lat="49.41313" lon="0.23324">
        <ele>42</ele>
        <time>2021-02-21T11:20:04Z</time>
      </trkpt>
      <trkpt lat="49.41318" lon="0.23323">
        <ele>42</ele>
        <time>2021-02-21T11:20:07Z</time>
      </trkpt>
      <trkpt lat="49.41323" lon="0.23329">
        <ele>42</ele>
        <time>2021-02-21T11:20:12Z</time>
      </trkpt>
      <trkpt lat="49.41327" lon="0.23334">
        <ele>42</ele>
        <time>2021-02-21T11:20:15Z</time>
      </trkpt>
      <trkpt lat="49.41337" lon="0.23342">
        <ele>43</ele>
        <time>2021-02-21T11:20:23Z</time>
      </trkpt>
      <trkpt lat="49.41349" lon="0.23347">
        <ele>42</ele>
        <time>2021-02-21T11:20:34Z</time>
      </trkpt>
      <trkpt lat="49.41354" lon="0.23347">
        <ele>42</ele>
        <time>2021-02-21T11:20:39Z</time>
      </trkpt>
      <trkpt lat="49.41359" lon="0.23342">
        <ele>42</ele>
        <time>2021-02-21T11:20:43Z</time>
      </trkpt>
      <trkpt lat="49.41362" lon="0.23334">
        <ele>41</ele>
        <time>2021-02-21T11:20:50Z</time>
      </trkpt>
      <trkpt lat="49.41364" lon="0.23326">
        <ele>40</ele>
        <time>2021-02-21T11:20:57Z</time>
      </trkpt>
      <trkpt lat="49.41371" lon="0.23313">
        <ele>39</ele>
        <time>2021-02-21T11:21:07Z</time>
      </trkpt>
      <trkpt lat="49.41372" lon="0.23306">
        <ele>39</ele>
        <time>2021-02-21T11:21:13Z</time>
      </trkpt>
      <trkpt lat="49.41371" lon="0.23299">
        <ele>39</ele>
        <time>2021-02-21T11:21:19Z</time>
      </trkpt>
      <trkpt lat="49.4138" lon="0.23288">
        <ele>38</ele>
        <time>2021-02-21T11:21:40Z</time>
      </trkpt>
      <trkpt lat="49.41393" lon="0.2327">
        <ele>36</ele>
        <time>2021-02-21T11:21:58Z</time>
      </trkpt>
      <trkpt lat="49.41398" lon="0.23269">
        <ele>35</ele>
        <time>2021-02-21T11:22:02Z</time>
      </trkpt>
      <trkpt lat="49.41408" lon="0.23271">
        <ele>35</ele>
        <time>2021-02-21T11:22:11Z</time>
      </trkpt>
      <trkpt lat="49.41412" lon="0.23273">
        <ele>34</ele>
        <time>2021-02-21T11:22:15Z</time>
      </trkpt>
      <trkpt lat="49.41444" lon="0.23281">
        <ele>32</ele>
        <time>2021-02-21T11:22:37Z</time>
      </trkpt>
      <trkpt lat="49.41454" lon="0.23278">
        <ele>31</ele>
        <time>2021-02-21T11:22:45Z</time>
      </trkpt>
      <trkpt lat="49.4146" lon="0.23277">
        <ele>31</ele>
        <time>2021-02-21T11:22:49Z</time>
      </trkpt>
      <trkpt lat="49.415" lon="0.23291">
        <ele>30</ele>
        <time>2021-02-21T11:23:23Z</time>
      </trkpt>
      <trkpt lat="49.41507" lon="0.23297">
        <ele>30</ele>
        <time>2021-02-21T11:23:31Z</time>
      </trkpt>
      <trkpt lat="49.41523" lon="0.23303">
        <ele>30</ele>
        <time>2021-02-21T11:23:45Z</time>
      </trkpt>
      <trkpt lat="49.41537" lon="0.23312">
        <ele>30</ele>
        <time>2021-02-21T11:23:58Z</time>
      </trkpt>
      <trkpt lat="49.41548" lon="0.23316">
        <ele>29</ele>
        <time>2021-02-21T11:24:15Z</time>
      </trkpt>
      <trkpt lat="49.41554" lon="0.23311">
        <ele>29</ele>
        <time>2021-02-21T11:24:19Z</time>
      </trkpt>
      <trkpt lat="49.4156" lon="0.23299">
        <ele>28</ele>
        <time>2021-02-21T11:24:26Z</time>
      </trkpt>
      <trkpt lat="49.41562" lon="0.23298">
        <ele>28</ele>
        <time>2021-02-21T11:25:12Z</time>
      </trkpt>
      <trkpt lat="49.41566" lon="0.23298">
        <ele>28</ele>
        <time>2021-02-21T11:25:16Z</time>
      </trkpt>
      <trkpt lat="49.41571" lon="0.23299">
        <ele>28</ele>
        <time>2021-02-21T11:25:21Z</time>
      </trkpt>
      <trkpt lat="49.41596" lon="0.2331">
        <ele>28</ele>
        <time>2021-02-21T11:25:48Z</time>
      </trkpt>
      <trkpt lat="49.41602" lon="0.23309">
        <ele>28</ele>
        <time>2021-02-21T11:25:53Z</time>
      </trkpt>
      <trkpt lat="49.41607" lon="0.23311">
        <ele>28</ele>
        <time>2021-02-21T11:25:58Z</time>
      </trkpt>
      <trkpt lat="49.41613" lon="0.23309">
        <ele>28</ele>
        <time>2021-02-21T11:26:03Z</time>
      </trkpt>
      <trkpt lat="49.41627" lon="0.23318">
        <ele>27</ele>
        <time>2021-02-21T11:26:17Z</time>
      </trkpt>
      <trkpt lat="49.41631" lon="0.23325">
        <ele>27</ele>
        <time>2021-02-21T11:26:22Z</time>
      </trkpt>
      <trkpt lat="49.41637" lon="0.23325">
        <ele>26</ele>
        <time>2021-02-21T11:26:27Z</time>
      </trkpt>
      <trkpt lat="49.41643" lon="0.23321">
        <ele>26</ele>
        <time>2021-02-21T11:26:30Z</time>
      </trkpt>
      <trkpt lat="49.41659" lon="0.23328">
        <ele>25</ele>
        <time>2021-02-21T11:26:42Z</time>
      </trkpt>
      <trkpt lat="49.41664" lon="0.23332">
        <ele>25</ele>
        <time>2021-02-21T11:26:46Z</time>
      </trkpt>
      <trkpt lat="49.41688" lon="0.23337">
        <ele>23</ele>
        <time>2021-02-21T11:27:14Z</time>
      </trkpt>
      <trkpt lat="49.41711" lon="0.23349">
        <ele>20</ele>
        <time>2021-02-21T11:27:34Z</time>
      </trkpt>
      <trkpt lat="49.41719" lon="0.23355">
        <ele>19</ele>
        <time>2021-02-21T11:27:40Z</time>
      </trkpt>
      <trkpt lat="49.41734" lon="0.2338">
        <ele>17</ele>
        <time>2021-02-21T11:28:02Z</time>
      </trkpt>
      <trkpt lat="49.41749" lon="0.23384">
        <ele>16</ele>
        <time>2021-02-21T11:28:14Z</time>
      </trkpt>
      <trkpt lat="49.41766" lon="0.23402">
        <ele>13</ele>
        <time>2021-02-21T11:28:32Z</time>
      </trkpt>
      <trkpt lat="49.41771" lon="0.23405">
        <ele>13</ele>
        <time>2021-02-21T11:28:37Z</time>
      </trkpt>
      <trkpt lat="49.41771" lon="0.23414">
        <ele>14</ele>
        <time>2021-02-21T11:28:49Z</time>
      </trkpt>
      <trkpt lat="49.41773" lon="0.23426">
        <ele>13</ele>
        <time>2021-02-21T11:29:11Z</time>
      </trkpt>
      <trkpt lat="49.41771" lon="0.23442">
        <ele>13</ele>
        <time>2021-02-21T11:29:20Z</time>
      </trkpt>
      <trkpt lat="49.41765" lon="0.23443">
        <ele>14</ele>
        <time>2021-02-21T11:29:47Z</time>
      </trkpt>
      <trkpt lat="49.4176" lon="0.23444">
        <ele>14</ele>
        <time>2021-02-21T11:29:58Z</time>
      </trkpt>
      <trkpt lat="49.41742" lon="0.23531">
        <ele>15</ele>
        <time>2021-02-21T11:31:35Z</time>
      </trkpt>
      <trkpt lat="49.41761" lon="0.23502">
        <ele>15</ele>
        <time>2021-02-21T11:32:23Z</time>
      </trkpt>
      <trkpt lat="49.41821" lon="0.23261">
        <ele>14</ele>
        <time>2021-02-21T11:34:13Z</time>
      </trkpt>
      <trkpt lat="49.41756" lon="0.23445">
        <ele>14</ele>
        <time>2021-02-21T11:34:39Z</time>
      </trkpt>
      <trkpt lat="49.41766" lon="0.23442">
        <ele>14</ele>
        <time>2021-02-21T11:36:24Z</time>
      </trkpt>
      <trkpt lat="49.41771" lon="0.23451">
        <ele>13</ele>
        <time>2021-02-21T11:36:37Z</time>
      </trkpt>
      <trkpt lat="49.41772" lon="0.23458">
        <ele>13</ele>
        <time>2021-02-21T11:36:41Z</time>
      </trkpt>
      <trkpt lat="49.41773" lon="0.23467">
        <ele>13</ele>
        <time>2021-02-21T11:36:46Z</time>
      </trkpt>
      <trkpt lat="49.41783" lon="0.23475">
        <ele>11</ele>
        <time>2021-02-21T11:37:02Z</time>
      </trkpt>
      <trkpt lat="49.4181" lon="0.23489">
        <ele>10</ele>
        <time>2021-02-21T11:37:27Z</time>
      </trkpt>
      <trkpt lat="49.41817" lon="0.23495">
        <ele>10</ele>
        <time>2021-02-21T11:37:33Z</time>
      </trkpt>
      <trkpt lat="49.4182" lon="0.23501">
        <ele>9</ele>
        <time>2021-02-21T11:37:44Z</time>
      </trkpt>
      <trkpt lat="49.41826" lon="0.23506">
        <ele>9</ele>
        <time>2021-02-21T11:37:50Z</time>
      </trkpt>
      <trkpt lat="49.4183" lon="0.2351">
        <ele>9</ele>
        <time>2021-02-21T11:37:54Z</time>
      </trkpt>
    </trkseg>
  </trk>
</gpx>